<?xml version="1.0" encoding="UTF-8" standalone="no" ?>
<gpx xmlns="http://www.topografix.com/GPX/1/1" xmlns:xsi="http://www.w3.org/2001/XMLSchema-instance" xsi:schemaLocation="http://www.topografix.com/GPX/1/1 http://www.topografix.com/GPX/1/1/gpx.xsd" version="1.1" creator="VisuGPX - https://www.visugpx.com">
  <metadata>
    <name>Course à pied dans l'après-midi</name>
  </metadata>
  <trk>
    <name><![CDATA[Course à pied dans l'après-midi_1]]></name>
    <trkseg>
      <trkpt lat="46.07982" lon="6.71538">
        <ele>693.8</ele>
        <time>2023-08-17T14:48:02Z</time>
      </trkpt>
      <trkpt lat="46.07979" lon="6.71539">
        <ele>693.8</ele>
        <time>2023-08-17T14:48:03Z</time>
      </trkpt>
      <trkpt lat="46.07962" lon="6.71548">
        <ele>694</ele>
        <time>2023-08-17T14:48:10Z</time>
      </trkpt>
      <trkpt lat="46.07943" lon="6.71548">
        <ele>694</ele>
        <time>2023-08-17T14:48:16Z</time>
      </trkpt>
      <trkpt lat="46.07923" lon="6.71539">
        <ele>694.1</ele>
        <time>2023-08-17T14:48:23Z</time>
      </trkpt>
      <trkpt lat="46.07905" lon="6.71529">
        <ele>694</ele>
        <time>2023-08-17T14:48:30Z</time>
      </trkpt>
      <trkpt lat="46.07887" lon="6.71519">
        <ele>694</ele>
        <time>2023-08-17T14:48:37Z</time>
      </trkpt>
      <trkpt lat="46.0787" lon="6.71523">
        <ele>694.1</ele>
        <time>2023-08-17T14:48:44Z</time>
      </trkpt>
      <trkpt lat="46.07866" lon="6.71549">
        <ele>694.5</ele>
        <time>2023-08-17T14:48:50Z</time>
      </trkpt>
      <trkpt lat="46.07864" lon="6.71556">
        <ele>694.6</ele>
        <time>2023-08-17T14:48:52Z</time>
      </trkpt>
      <trkpt lat="46.07852" lon="6.71575">
        <ele>694.8</ele>
        <time>2023-08-17T14:49:00Z</time>
      </trkpt>
      <trkpt lat="46.07862" lon="6.71599">
        <ele>694.9</ele>
        <time>2023-08-17T14:49:07Z</time>
      </trkpt>
      <trkpt lat="46.07875" lon="6.71621">
        <ele>694.8</ele>
        <time>2023-08-17T14:49:14Z</time>
      </trkpt>
      <trkpt lat="46.07888" lon="6.71644">
        <ele>694.9</ele>
        <time>2023-08-17T14:49:21Z</time>
      </trkpt>
      <trkpt lat="46.07901" lon="6.71665">
        <ele>695.1</ele>
        <time>2023-08-17T14:49:28Z</time>
      </trkpt>
      <trkpt lat="46.07915" lon="6.71681">
        <ele>695.2</ele>
        <time>2023-08-17T14:49:35Z</time>
      </trkpt>
      <trkpt lat="46.07932" lon="6.71697">
        <ele>695.2</ele>
        <time>2023-08-17T14:49:42Z</time>
      </trkpt>
      <trkpt lat="46.07939" lon="6.71722">
        <ele>695.4</ele>
        <time>2023-08-17T14:49:49Z</time>
      </trkpt>
      <trkpt lat="46.07931" lon="6.71749">
        <ele>695.8</ele>
        <time>2023-08-17T14:49:56Z</time>
      </trkpt>
      <trkpt lat="46.07925" lon="6.71775">
        <ele>696</ele>
        <time>2023-08-17T14:50:03Z</time>
      </trkpt>
      <trkpt lat="46.07919" lon="6.71801">
        <ele>696.1</ele>
        <time>2023-08-17T14:50:09Z</time>
      </trkpt>
      <trkpt lat="46.07916" lon="6.71828">
        <ele>696.2</ele>
        <time>2023-08-17T14:50:16Z</time>
      </trkpt>
      <trkpt lat="46.07931" lon="6.71841">
        <ele>696.2</ele>
        <time>2023-08-17T14:50:23Z</time>
      </trkpt>
      <trkpt lat="46.07948" lon="6.71849">
        <ele>696.2</ele>
        <time>2023-08-17T14:50:29Z</time>
      </trkpt>
      <trkpt lat="46.07967" lon="6.71857">
        <ele>696.1</ele>
        <time>2023-08-17T14:50:35Z</time>
      </trkpt>
      <trkpt lat="46.07983" lon="6.71871">
        <ele>696</ele>
        <time>2023-08-17T14:50:41Z</time>
      </trkpt>
      <trkpt lat="46.08" lon="6.71882">
        <ele>695.9</ele>
        <time>2023-08-17T14:50:47Z</time>
      </trkpt>
      <trkpt lat="46.08018" lon="6.71893">
        <ele>695.8</ele>
        <time>2023-08-17T14:50:54Z</time>
      </trkpt>
      <trkpt lat="46.08036" lon="6.71901">
        <ele>695.7</ele>
        <time>2023-08-17T14:51:00Z</time>
      </trkpt>
      <trkpt lat="46.08053" lon="6.7191">
        <ele>695.6</ele>
        <time>2023-08-17T14:51:06Z</time>
      </trkpt>
      <trkpt lat="46.0807" lon="6.71924">
        <ele>695.6</ele>
        <time>2023-08-17T14:51:13Z</time>
      </trkpt>
      <trkpt lat="46.08087" lon="6.7194">
        <ele>695.7</ele>
        <time>2023-08-17T14:51:20Z</time>
      </trkpt>
      <trkpt lat="46.08104" lon="6.71957">
        <ele>695.7</ele>
        <time>2023-08-17T14:51:27Z</time>
      </trkpt>
      <trkpt lat="46.08118" lon="6.71973">
        <ele>695.7</ele>
        <time>2023-08-17T14:51:33Z</time>
      </trkpt>
      <trkpt lat="46.08134" lon="6.71991">
        <ele>695.7</ele>
        <time>2023-08-17T14:51:40Z</time>
      </trkpt>
      <trkpt lat="46.0815" lon="6.7201">
        <ele>695.9</ele>
        <time>2023-08-17T14:51:47Z</time>
      </trkpt>
      <trkpt lat="46.08166" lon="6.72027">
        <ele>696.4</ele>
        <time>2023-08-17T14:51:54Z</time>
      </trkpt>
      <trkpt lat="46.08182" lon="6.72044">
        <ele>696.7</ele>
        <time>2023-08-17T14:52:01Z</time>
      </trkpt>
      <trkpt lat="46.08198" lon="6.72062">
        <ele>697</ele>
        <time>2023-08-17T14:52:08Z</time>
      </trkpt>
      <trkpt lat="46.08213" lon="6.72079">
        <ele>697.2</ele>
        <time>2023-08-17T14:52:14Z</time>
      </trkpt>
      <trkpt lat="46.08228" lon="6.72097">
        <ele>697.5</ele>
        <time>2023-08-17T14:52:21Z</time>
      </trkpt>
      <trkpt lat="46.08243" lon="6.72114">
        <ele>697.7</ele>
        <time>2023-08-17T14:52:28Z</time>
      </trkpt>
      <trkpt lat="46.08259" lon="6.72132">
        <ele>698</ele>
        <time>2023-08-17T14:52:35Z</time>
      </trkpt>
      <trkpt lat="46.0826" lon="6.7216">
        <ele>698</ele>
        <time>2023-08-17T14:52:42Z</time>
      </trkpt>
      <trkpt lat="46.0826" lon="6.72188">
        <ele>698.1</ele>
        <time>2023-08-17T14:52:49Z</time>
      </trkpt>
      <trkpt lat="46.08261" lon="6.72217">
        <ele>698.6</ele>
        <time>2023-08-17T14:52:56Z</time>
      </trkpt>
      <trkpt lat="46.0827" lon="6.72241">
        <ele>699.2</ele>
        <time>2023-08-17T14:53:03Z</time>
      </trkpt>
      <trkpt lat="46.0828" lon="6.72263">
        <ele>699.7</ele>
        <time>2023-08-17T14:53:11Z</time>
      </trkpt>
      <trkpt lat="46.0828" lon="6.72293">
        <ele>700.4</ele>
        <time>2023-08-17T14:53:19Z</time>
      </trkpt>
      <trkpt lat="46.08278" lon="6.7232">
        <ele>701.2</ele>
        <time>2023-08-17T14:53:26Z</time>
      </trkpt>
      <trkpt lat="46.08277" lon="6.72346">
        <ele>702</ele>
        <time>2023-08-17T14:53:33Z</time>
      </trkpt>
      <trkpt lat="46.08269" lon="6.72373">
        <ele>702.1</ele>
        <time>2023-08-17T14:53:40Z</time>
      </trkpt>
      <trkpt lat="46.0826" lon="6.72397">
        <ele>702.3</ele>
        <time>2023-08-17T14:53:47Z</time>
      </trkpt>
      <trkpt lat="46.08263" lon="6.72426">
        <ele>702.8</ele>
        <time>2023-08-17T14:53:55Z</time>
      </trkpt>
      <trkpt lat="46.08274" lon="6.72445">
        <ele>703.3</ele>
        <time>2023-08-17T14:54:02Z</time>
      </trkpt>
      <trkpt lat="46.0829" lon="6.72459">
        <ele>703.7</ele>
        <time>2023-08-17T14:54:09Z</time>
      </trkpt>
      <trkpt lat="46.08307" lon="6.72472">
        <ele>703.9</ele>
        <time>2023-08-17T14:54:16Z</time>
      </trkpt>
      <trkpt lat="46.08324" lon="6.72487">
        <ele>704.4</ele>
        <time>2023-08-17T14:54:23Z</time>
      </trkpt>
      <trkpt lat="46.08342" lon="6.72501">
        <ele>704.9</ele>
        <time>2023-08-17T14:54:30Z</time>
      </trkpt>
      <trkpt lat="46.08359" lon="6.72514">
        <ele>705.6</ele>
        <time>2023-08-17T14:54:37Z</time>
      </trkpt>
      <trkpt lat="46.08369" lon="6.72536">
        <ele>706.2</ele>
        <time>2023-08-17T14:54:44Z</time>
      </trkpt>
      <trkpt lat="46.08374" lon="6.72561">
        <ele>706.7</ele>
        <time>2023-08-17T14:54:50Z</time>
      </trkpt>
      <trkpt lat="46.08378" lon="6.72588">
        <ele>707.2</ele>
        <time>2023-08-17T14:54:57Z</time>
      </trkpt>
      <trkpt lat="46.08379" lon="6.72615">
        <ele>707.6</ele>
        <time>2023-08-17T14:55:04Z</time>
      </trkpt>
      <trkpt lat="46.08379" lon="6.72644">
        <ele>709.2</ele>
        <time>2023-08-17T14:55:12Z</time>
      </trkpt>
      <trkpt lat="46.08383" lon="6.72669">
        <ele>710.7</ele>
        <time>2023-08-17T14:55:19Z</time>
      </trkpt>
      <trkpt lat="46.08392" lon="6.72692">
        <ele>712.1</ele>
        <time>2023-08-17T14:55:26Z</time>
      </trkpt>
      <trkpt lat="46.08395" lon="6.72703">
        <ele>713.3</ele>
        <time>2023-08-17T14:55:30Z</time>
      </trkpt>
      <trkpt lat="46.08392" lon="6.72731">
        <ele>712.9</ele>
        <time>2023-08-17T14:55:37Z</time>
      </trkpt>
      <trkpt lat="46.08391" lon="6.7276">
        <ele>712.7</ele>
        <time>2023-08-17T14:55:45Z</time>
      </trkpt>
      <trkpt lat="46.08395" lon="6.72788">
        <ele>713.4</ele>
        <time>2023-08-17T14:55:53Z</time>
      </trkpt>
      <trkpt lat="46.08396" lon="6.7279">
        <ele>714.1</ele>
        <time>2023-08-17T14:55:54Z</time>
      </trkpt>
      <trkpt lat="46.08415" lon="6.72786">
        <ele>716</ele>
        <time>2023-08-17T14:56:03Z</time>
      </trkpt>
      <trkpt lat="46.08426" lon="6.72768">
        <ele>720</ele>
        <time>2023-08-17T14:56:14Z</time>
      </trkpt>
      <trkpt lat="46.08429" lon="6.72755">
        <ele>722.2</ele>
        <time>2023-08-17T14:56:21Z</time>
      </trkpt>
      <trkpt lat="46.08446" lon="6.72769">
        <ele>726.7</ele>
        <time>2023-08-17T14:56:35Z</time>
      </trkpt>
      <trkpt lat="46.0846" lon="6.72778">
        <ele>731.3</ele>
        <time>2023-08-17T14:56:44Z</time>
      </trkpt>
      <trkpt lat="46.08472" lon="6.72775">
        <ele>734.3</ele>
        <time>2023-08-17T14:56:55Z</time>
      </trkpt>
      <trkpt lat="46.0849" lon="6.72782">
        <ele>738.1</ele>
        <time>2023-08-17T14:57:08Z</time>
      </trkpt>
      <trkpt lat="46.08499" lon="6.72795">
        <ele>741.7</ele>
        <time>2023-08-17T14:57:17Z</time>
      </trkpt>
      <trkpt lat="46.08508" lon="6.72776">
        <ele>746.7</ele>
        <time>2023-08-17T14:57:31Z</time>
      </trkpt>
      <trkpt lat="46.08509" lon="6.7275">
        <ele>752.3</ele>
        <time>2023-08-17T14:57:45Z</time>
      </trkpt>
      <trkpt lat="46.08509" lon="6.72737">
        <ele>755.5</ele>
        <time>2023-08-17T14:57:55Z</time>
      </trkpt>
      <trkpt lat="46.08514" lon="6.72725">
        <ele>759.1</ele>
        <time>2023-08-17T14:58:07Z</time>
      </trkpt>
      <trkpt lat="46.08532" lon="6.72733">
        <ele>764</ele>
        <time>2023-08-17T14:58:25Z</time>
      </trkpt>
      <trkpt lat="46.08549" lon="6.72746">
        <ele>766.2</ele>
        <time>2023-08-17T14:58:35Z</time>
      </trkpt>
      <trkpt lat="46.08568" lon="6.72743">
        <ele>768.8</ele>
        <time>2023-08-17T14:58:43Z</time>
      </trkpt>
      <trkpt lat="46.08587" lon="6.72744">
        <ele>772.5</ele>
        <time>2023-08-17T14:58:53Z</time>
      </trkpt>
      <trkpt lat="46.08606" lon="6.72745">
        <ele>777.1</ele>
        <time>2023-08-17T14:59:05Z</time>
      </trkpt>
      <trkpt lat="46.08606" lon="6.72743">
        <ele>777.5</ele>
        <time>2023-08-17T14:59:06Z</time>
      </trkpt>
      <trkpt lat="46.08605" lon="6.72716">
        <ele>781.7</ele>
        <time>2023-08-17T14:59:21Z</time>
      </trkpt>
      <trkpt lat="46.08622" lon="6.72707">
        <ele>783.1</ele>
        <time>2023-08-17T14:59:32Z</time>
      </trkpt>
      <trkpt lat="46.08637" lon="6.72726">
        <ele>783.7</ele>
        <time>2023-08-17T14:59:40Z</time>
      </trkpt>
      <trkpt lat="46.0865" lon="6.72745">
        <ele>784.5</ele>
        <time>2023-08-17T14:59:47Z</time>
      </trkpt>
      <trkpt lat="46.08652" lon="6.72746">
        <ele>785.1</ele>
        <time>2023-08-17T14:59:48Z</time>
      </trkpt>
      <trkpt lat="46.08655" lon="6.72743">
        <ele>785.3</ele>
        <time>2023-08-17T14:59:50Z</time>
      </trkpt>
      <trkpt lat="46.08665" lon="6.72718">
        <ele>786.6</ele>
        <time>2023-08-17T14:59:58Z</time>
      </trkpt>
      <trkpt lat="46.08673" lon="6.72695">
        <ele>787.8</ele>
        <time>2023-08-17T15:00:05Z</time>
      </trkpt>
      <trkpt lat="46.08683" lon="6.72674">
        <ele>789</ele>
        <time>2023-08-17T15:00:12Z</time>
      </trkpt>
      <trkpt lat="46.08696" lon="6.72694">
        <ele>792.3</ele>
        <time>2023-08-17T15:00:20Z</time>
      </trkpt>
      <trkpt lat="46.08693" lon="6.7272">
        <ele>792.5</ele>
        <time>2023-08-17T15:00:26Z</time>
      </trkpt>
      <trkpt lat="46.08688" lon="6.72746">
        <ele>792.5</ele>
        <time>2023-08-17T15:00:33Z</time>
      </trkpt>
      <trkpt lat="46.08691" lon="6.72774">
        <ele>793</ele>
        <time>2023-08-17T15:00:41Z</time>
      </trkpt>
      <trkpt lat="46.08685" lon="6.728">
        <ele>792.8</ele>
        <time>2023-08-17T15:00:48Z</time>
      </trkpt>
      <trkpt lat="46.08682" lon="6.72825">
        <ele>792.1</ele>
        <time>2023-08-17T15:00:54Z</time>
      </trkpt>
      <trkpt lat="46.0868" lon="6.72855">
        <ele>791.5</ele>
        <time>2023-08-17T15:01:01Z</time>
      </trkpt>
      <trkpt lat="46.08681" lon="6.72884">
        <ele>791.4</ele>
        <time>2023-08-17T15:01:07Z</time>
      </trkpt>
      <trkpt lat="46.08682" lon="6.72911">
        <ele>792</ele>
        <time>2023-08-17T15:01:13Z</time>
      </trkpt>
      <trkpt lat="46.08686" lon="6.7294">
        <ele>794.4</ele>
        <time>2023-08-17T15:01:22Z</time>
      </trkpt>
      <trkpt lat="46.08692" lon="6.72966">
        <ele>799.9</ele>
        <time>2023-08-17T15:01:37Z</time>
      </trkpt>
      <trkpt lat="46.08702" lon="6.7298">
        <ele>805.2</ele>
        <time>2023-08-17T15:01:50Z</time>
      </trkpt>
      <trkpt lat="46.08714" lon="6.7296">
        <ele>811.1</ele>
        <time>2023-08-17T15:02:04Z</time>
      </trkpt>
      <trkpt lat="46.08729" lon="6.72944">
        <ele>817</ele>
        <time>2023-08-17T15:02:17Z</time>
      </trkpt>
      <trkpt lat="46.08735" lon="6.7294">
        <ele>818.5</ele>
        <time>2023-08-17T15:02:22Z</time>
      </trkpt>
      <trkpt lat="46.08738" lon="6.72943">
        <ele>819.4</ele>
        <time>2023-08-17T15:02:25Z</time>
      </trkpt>
      <trkpt lat="46.08734" lon="6.72963">
        <ele>823.1</ele>
        <time>2023-08-17T15:02:37Z</time>
      </trkpt>
      <trkpt lat="46.08731" lon="6.7297">
        <ele>824.4</ele>
        <time>2023-08-17T15:02:42Z</time>
      </trkpt>
      <trkpt lat="46.0873" lon="6.72974">
        <ele>825.2</ele>
        <time>2023-08-17T15:02:44Z</time>
      </trkpt>
      <trkpt lat="46.08728" lon="6.72988">
        <ele>827.8</ele>
        <time>2023-08-17T15:02:51Z</time>
      </trkpt>
      <trkpt lat="46.08732" lon="6.73014">
        <ele>832</ele>
        <time>2023-08-17T15:03:03Z</time>
      </trkpt>
      <trkpt lat="46.08738" lon="6.73038">
        <ele>835.4</ele>
        <time>2023-08-17T15:03:17Z</time>
      </trkpt>
      <trkpt lat="46.08741" lon="6.73044">
        <ele>838.5</ele>
        <time>2023-08-17T15:03:21Z</time>
      </trkpt>
      <trkpt lat="46.08742" lon="6.73042">
        <ele>838.9</ele>
        <time>2023-08-17T15:03:23Z</time>
      </trkpt>
      <trkpt lat="46.08754" lon="6.73021">
        <ele>844.7</ele>
        <time>2023-08-17T15:03:39Z</time>
      </trkpt>
      <trkpt lat="46.08758" lon="6.73015">
        <ele>845.8</ele>
        <time>2023-08-17T15:03:44Z</time>
      </trkpt>
      <trkpt lat="46.08772" lon="6.73007">
        <ele>848.1</ele>
        <time>2023-08-17T15:03:55Z</time>
      </trkpt>
      <trkpt lat="46.08792" lon="6.73004">
        <ele>849.7</ele>
        <time>2023-08-17T15:04:05Z</time>
      </trkpt>
      <trkpt lat="46.08811" lon="6.72995">
        <ele>851.3</ele>
        <time>2023-08-17T15:04:13Z</time>
      </trkpt>
      <trkpt lat="46.08829" lon="6.72986">
        <ele>853.6</ele>
        <time>2023-08-17T15:04:23Z</time>
      </trkpt>
      <trkpt lat="46.08845" lon="6.72971">
        <ele>856</ele>
        <time>2023-08-17T15:04:33Z</time>
      </trkpt>
      <trkpt lat="46.08863" lon="6.72959">
        <ele>858.5</ele>
        <time>2023-08-17T15:04:41Z</time>
      </trkpt>
      <trkpt lat="46.08881" lon="6.72961">
        <ele>862</ele>
        <time>2023-08-17T15:04:51Z</time>
      </trkpt>
      <trkpt lat="46.08899" lon="6.72963">
        <ele>867.8</ele>
        <time>2023-08-17T15:05:06Z</time>
      </trkpt>
      <trkpt lat="46.08918" lon="6.72968">
        <ele>874.5</ele>
        <time>2023-08-17T15:05:20Z</time>
      </trkpt>
      <trkpt lat="46.08936" lon="6.72965">
        <ele>879.8</ele>
        <time>2023-08-17T15:05:36Z</time>
      </trkpt>
      <trkpt lat="46.08955" lon="6.72971">
        <ele>882.7</ele>
        <time>2023-08-17T15:05:50Z</time>
      </trkpt>
      <trkpt lat="46.08973" lon="6.72966">
        <ele>884.9</ele>
        <time>2023-08-17T15:06:00Z</time>
      </trkpt>
      <trkpt lat="46.08989" lon="6.72949">
        <ele>888.7</ele>
        <time>2023-08-17T15:06:11Z</time>
      </trkpt>
      <trkpt lat="46.09004" lon="6.72934">
        <ele>893.1</ele>
        <time>2023-08-17T15:06:23Z</time>
      </trkpt>
      <trkpt lat="46.09022" lon="6.72922">
        <ele>897.6</ele>
        <time>2023-08-17T15:06:36Z</time>
      </trkpt>
      <trkpt lat="46.09037" lon="6.72908">
        <ele>902.1</ele>
        <time>2023-08-17T15:06:48Z</time>
      </trkpt>
      <trkpt lat="46.09049" lon="6.72892">
        <ele>906.7</ele>
        <time>2023-08-17T15:07:06Z</time>
      </trkpt>
      <trkpt lat="46.09061" lon="6.72873">
        <ele>911.6</ele>
        <time>2023-08-17T15:07:20Z</time>
      </trkpt>
      <trkpt lat="46.0907" lon="6.72861">
        <ele>915.2</ele>
        <time>2023-08-17T15:07:30Z</time>
      </trkpt>
      <trkpt lat="46.09074" lon="6.72849">
        <ele>917.4</ele>
        <time>2023-08-17T15:07:38Z</time>
      </trkpt>
      <trkpt lat="46.09074" lon="6.72848">
        <ele>917.4</ele>
        <time>2023-08-17T15:07:40Z</time>
      </trkpt>
      <trkpt lat="46.09075" lon="6.72842">
        <ele>918</ele>
        <time>2023-08-17T15:07:43Z</time>
      </trkpt>
      <trkpt lat="46.09079" lon="6.72817">
        <ele>922.7</ele>
        <time>2023-08-17T15:07:53Z</time>
      </trkpt>
      <trkpt lat="46.09081" lon="6.72804">
        <ele>925</ele>
        <time>2023-08-17T15:08:03Z</time>
      </trkpt>
      <trkpt lat="46.0908" lon="6.72802">
        <ele>925.4</ele>
        <time>2023-08-17T15:08:05Z</time>
      </trkpt>
      <trkpt lat="46.09076" lon="6.72776">
        <ele>927.7</ele>
        <time>2023-08-17T15:08:16Z</time>
      </trkpt>
      <trkpt lat="46.09067" lon="6.72753">
        <ele>930.2</ele>
        <time>2023-08-17T15:08:25Z</time>
      </trkpt>
      <trkpt lat="46.09057" lon="6.72731">
        <ele>932.5</ele>
        <time>2023-08-17T15:08:33Z</time>
      </trkpt>
      <trkpt lat="46.0905" lon="6.72707">
        <ele>934.7</ele>
        <time>2023-08-17T15:08:43Z</time>
      </trkpt>
      <trkpt lat="46.09061" lon="6.72686">
        <ele>937.1</ele>
        <time>2023-08-17T15:08:52Z</time>
      </trkpt>
      <trkpt lat="46.09077" lon="6.72668">
        <ele>940.2</ele>
        <time>2023-08-17T15:09:02Z</time>
      </trkpt>
      <trkpt lat="46.09089" lon="6.7265">
        <ele>943.3</ele>
        <time>2023-08-17T15:09:12Z</time>
      </trkpt>
      <trkpt lat="46.09099" lon="6.72626">
        <ele>946.7</ele>
        <time>2023-08-17T15:09:23Z</time>
      </trkpt>
      <trkpt lat="46.09108" lon="6.72603">
        <ele>950.5</ele>
        <time>2023-08-17T15:09:35Z</time>
      </trkpt>
      <trkpt lat="46.09118" lon="6.72581">
        <ele>954.7</ele>
        <time>2023-08-17T15:09:46Z</time>
      </trkpt>
      <trkpt lat="46.09132" lon="6.72562">
        <ele>959.1</ele>
        <time>2023-08-17T15:10:01Z</time>
      </trkpt>
      <trkpt lat="46.09144" lon="6.72542">
        <ele>963.6</ele>
        <time>2023-08-17T15:10:15Z</time>
      </trkpt>
      <trkpt lat="46.09155" lon="6.72522">
        <ele>968.7</ele>
        <time>2023-08-17T15:10:27Z</time>
      </trkpt>
      <trkpt lat="46.09169" lon="6.72503">
        <ele>974.4</ele>
        <time>2023-08-17T15:10:40Z</time>
      </trkpt>
      <trkpt lat="46.09183" lon="6.72487">
        <ele>979.9</ele>
        <time>2023-08-17T15:10:56Z</time>
      </trkpt>
      <trkpt lat="46.09198" lon="6.7247">
        <ele>985.2</ele>
        <time>2023-08-17T15:11:10Z</time>
      </trkpt>
      <trkpt lat="46.09212" lon="6.72453">
        <ele>989.9</ele>
        <time>2023-08-17T15:11:24Z</time>
      </trkpt>
      <trkpt lat="46.09217" lon="6.72445">
        <ele>991.7</ele>
        <time>2023-08-17T15:11:30Z</time>
      </trkpt>
      <trkpt lat="46.09231" lon="6.72427">
        <ele>996.2</ele>
        <time>2023-08-17T15:11:44Z</time>
      </trkpt>
      <trkpt lat="46.09245" lon="6.72412">
        <ele>1000.7</ele>
        <time>2023-08-17T15:11:56Z</time>
      </trkpt>
      <trkpt lat="46.09259" lon="6.72402">
        <ele>1005.2</ele>
        <time>2023-08-17T15:12:09Z</time>
      </trkpt>
      <trkpt lat="46.09275" lon="6.72388">
        <ele>1010.4</ele>
        <time>2023-08-17T15:12:23Z</time>
      </trkpt>
      <trkpt lat="46.09292" lon="6.72378">
        <ele>1015.5</ele>
        <time>2023-08-17T15:12:36Z</time>
      </trkpt>
      <trkpt lat="46.093" lon="6.72383">
        <ele>1017.6</ele>
        <time>2023-08-17T15:12:41Z</time>
      </trkpt>
      <trkpt lat="46.09302" lon="6.72401">
        <ele>1020.8</ele>
        <time>2023-08-17T15:12:48Z</time>
      </trkpt>
      <trkpt lat="46.09313" lon="6.72411">
        <ele>1023.8</ele>
        <time>2023-08-17T15:12:57Z</time>
      </trkpt>
      <trkpt lat="46.0933" lon="6.72398">
        <ele>1027.3</ele>
        <time>2023-08-17T15:13:08Z</time>
      </trkpt>
      <trkpt lat="46.09345" lon="6.72382">
        <ele>1030.3</ele>
        <time>2023-08-17T15:13:18Z</time>
      </trkpt>
      <trkpt lat="46.09359" lon="6.72363">
        <ele>1033.3</ele>
        <time>2023-08-17T15:13:29Z</time>
      </trkpt>
      <trkpt lat="46.09373" lon="6.72345">
        <ele>1036.5</ele>
        <time>2023-08-17T15:13:42Z</time>
      </trkpt>
      <trkpt lat="46.09386" lon="6.72327">
        <ele>1040.4</ele>
        <time>2023-08-17T15:13:56Z</time>
      </trkpt>
      <trkpt lat="46.09403" lon="6.72314">
        <ele>1044.3</ele>
        <time>2023-08-17T15:14:08Z</time>
      </trkpt>
      <trkpt lat="46.09419" lon="6.72301">
        <ele>1047.9</ele>
        <time>2023-08-17T15:14:21Z</time>
      </trkpt>
      <trkpt lat="46.09436" lon="6.7229">
        <ele>1051.1</ele>
        <time>2023-08-17T15:14:30Z</time>
      </trkpt>
      <trkpt lat="46.09456" lon="6.72296">
        <ele>1053.4</ele>
        <time>2023-08-17T15:14:40Z</time>
      </trkpt>
      <trkpt lat="46.09474" lon="6.72295">
        <ele>1055.6</ele>
        <time>2023-08-17T15:14:48Z</time>
      </trkpt>
      <trkpt lat="46.09488" lon="6.72278">
        <ele>1057.1</ele>
        <time>2023-08-17T15:14:55Z</time>
      </trkpt>
      <trkpt lat="46.09505" lon="6.72263">
        <ele>1058.6</ele>
        <time>2023-08-17T15:15:03Z</time>
      </trkpt>
      <trkpt lat="46.09523" lon="6.7226">
        <ele>1059.5</ele>
        <time>2023-08-17T15:15:10Z</time>
      </trkpt>
      <trkpt lat="46.09542" lon="6.72254">
        <ele>1060.5</ele>
        <time>2023-08-17T15:15:17Z</time>
      </trkpt>
      <trkpt lat="46.09559" lon="6.7224">
        <ele>1061.5</ele>
        <time>2023-08-17T15:15:25Z</time>
      </trkpt>
      <trkpt lat="46.09576" lon="6.72226">
        <ele>1062.3</ele>
        <time>2023-08-17T15:15:33Z</time>
      </trkpt>
      <trkpt lat="46.09594" lon="6.72224">
        <ele>1063.4</ele>
        <time>2023-08-17T15:15:39Z</time>
      </trkpt>
      <trkpt lat="46.09612" lon="6.72222">
        <ele>1065</ele>
        <time>2023-08-17T15:15:47Z</time>
      </trkpt>
      <trkpt lat="46.09616" lon="6.72225">
        <ele>1065</ele>
        <time>2023-08-17T15:15:49Z</time>
      </trkpt>
      <trkpt lat="46.09622" lon="6.72249">
        <ele>1067.4</ele>
        <time>2023-08-17T15:15:59Z</time>
      </trkpt>
      <trkpt lat="46.09634" lon="6.72271">
        <ele>1070</ele>
        <time>2023-08-17T15:16:09Z</time>
      </trkpt>
      <trkpt lat="46.0964" lon="6.7229">
        <ele>1072.2</ele>
        <time>2023-08-17T15:16:17Z</time>
      </trkpt>
      <trkpt lat="46.09645" lon="6.72316">
        <ele>1075.1</ele>
        <time>2023-08-17T15:16:29Z</time>
      </trkpt>
      <trkpt lat="46.0965" lon="6.72327">
        <ele>1076.6</ele>
        <time>2023-08-17T15:16:35Z</time>
      </trkpt>
      <trkpt lat="46.0965" lon="6.72329">
        <ele>1076.9</ele>
        <time>2023-08-17T15:16:47Z</time>
      </trkpt>
      <trkpt lat="46.09667" lon="6.72339">
        <ele>1080.2</ele>
        <time>2023-08-17T15:16:58Z</time>
      </trkpt>
      <trkpt lat="46.09685" lon="6.72347">
        <ele>1081.9</ele>
        <time>2023-08-17T15:17:07Z</time>
      </trkpt>
      <trkpt lat="46.09703" lon="6.72352">
        <ele>1084</ele>
        <time>2023-08-17T15:17:16Z</time>
      </trkpt>
      <trkpt lat="46.09721" lon="6.72364">
        <ele>1086.3</ele>
        <time>2023-08-17T15:17:27Z</time>
      </trkpt>
      <trkpt lat="46.09735" lon="6.72383">
        <ele>1088.3</ele>
        <time>2023-08-17T15:17:39Z</time>
      </trkpt>
      <trkpt lat="46.09749" lon="6.72402">
        <ele>1090.2</ele>
        <time>2023-08-17T15:17:50Z</time>
      </trkpt>
      <trkpt lat="46.09762" lon="6.72421">
        <ele>1092</ele>
        <time>2023-08-17T15:18:03Z</time>
      </trkpt>
      <trkpt lat="46.0978" lon="6.72428">
        <ele>1094.2</ele>
        <time>2023-08-17T15:18:14Z</time>
      </trkpt>
      <trkpt lat="46.09798" lon="6.7243">
        <ele>1096.5</ele>
        <time>2023-08-17T15:18:24Z</time>
      </trkpt>
      <trkpt lat="46.09813" lon="6.72446">
        <ele>1098.5</ele>
        <time>2023-08-17T15:18:31Z</time>
      </trkpt>
      <trkpt lat="46.09828" lon="6.72462">
        <ele>1100.3</ele>
        <time>2023-08-17T15:18:38Z</time>
      </trkpt>
      <trkpt lat="46.09843" lon="6.7248">
        <ele>1102.3</ele>
        <time>2023-08-17T15:18:45Z</time>
      </trkpt>
      <trkpt lat="46.09858" lon="6.72499">
        <ele>1104.2</ele>
        <time>2023-08-17T15:18:51Z</time>
      </trkpt>
      <trkpt lat="46.0987" lon="6.7252">
        <ele>1105.9</ele>
        <time>2023-08-17T15:18:58Z</time>
      </trkpt>
      <trkpt lat="46.09874" lon="6.72548">
        <ele>1107.8</ele>
        <time>2023-08-17T15:19:06Z</time>
      </trkpt>
      <trkpt lat="46.09882" lon="6.72575">
        <ele>1109.6</ele>
        <time>2023-08-17T15:19:14Z</time>
      </trkpt>
      <trkpt lat="46.09889" lon="6.72601">
        <ele>1111.4</ele>
        <time>2023-08-17T15:19:22Z</time>
      </trkpt>
      <trkpt lat="46.09893" lon="6.72626">
        <ele>1112.3</ele>
        <time>2023-08-17T15:19:29Z</time>
      </trkpt>
      <trkpt lat="46.09892" lon="6.72653">
        <ele>1113.4</ele>
        <time>2023-08-17T15:19:36Z</time>
      </trkpt>
      <trkpt lat="46.09893" lon="6.7268">
        <ele>1114.8</ele>
        <time>2023-08-17T15:19:43Z</time>
      </trkpt>
      <trkpt lat="46.09899" lon="6.72705">
        <ele>1116.4</ele>
        <time>2023-08-17T15:19:50Z</time>
      </trkpt>
      <trkpt lat="46.09907" lon="6.72731">
        <ele>1118.1</ele>
        <time>2023-08-17T15:19:58Z</time>
      </trkpt>
      <trkpt lat="46.09918" lon="6.72756">
        <ele>1119.7</ele>
        <time>2023-08-17T15:20:06Z</time>
      </trkpt>
      <trkpt lat="46.09927" lon="6.72782">
        <ele>1121.4</ele>
        <time>2023-08-17T15:20:14Z</time>
      </trkpt>
      <trkpt lat="46.09939" lon="6.72804">
        <ele>1123.2</ele>
        <time>2023-08-17T15:20:22Z</time>
      </trkpt>
      <trkpt lat="46.09951" lon="6.72826">
        <ele>1125.5</ele>
        <time>2023-08-17T15:20:31Z</time>
      </trkpt>
      <trkpt lat="46.0996" lon="6.72833">
        <ele>1126.7</ele>
        <time>2023-08-17T15:20:36Z</time>
      </trkpt>
      <trkpt lat="46.09978" lon="6.72827">
        <ele>1128.9</ele>
        <time>2023-08-17T15:20:44Z</time>
      </trkpt>
      <trkpt lat="46.09993" lon="6.72837">
        <ele>1130.8</ele>
        <time>2023-08-17T15:20:53Z</time>
      </trkpt>
      <trkpt lat="46.10001" lon="6.72863">
        <ele>1132.3</ele>
        <time>2023-08-17T15:21:02Z</time>
      </trkpt>
      <trkpt lat="46.10012" lon="6.72886">
        <ele>1134.1</ele>
        <time>2023-08-17T15:21:11Z</time>
      </trkpt>
      <trkpt lat="46.10028" lon="6.72905">
        <ele>1136.2</ele>
        <time>2023-08-17T15:21:19Z</time>
      </trkpt>
      <trkpt lat="46.10046" lon="6.72918">
        <ele>1138.6</ele>
        <time>2023-08-17T15:21:26Z</time>
      </trkpt>
      <trkpt lat="46.10064" lon="6.72928">
        <ele>1140.9</ele>
        <time>2023-08-17T15:21:34Z</time>
      </trkpt>
      <trkpt lat="46.10079" lon="6.72943">
        <ele>1142.9</ele>
        <time>2023-08-17T15:21:42Z</time>
      </trkpt>
      <trkpt lat="46.10091" lon="6.72964">
        <ele>1145.1</ele>
        <time>2023-08-17T15:21:50Z</time>
      </trkpt>
      <trkpt lat="46.10106" lon="6.7298">
        <ele>1147.1</ele>
        <time>2023-08-17T15:21:57Z</time>
      </trkpt>
      <trkpt lat="46.10122" lon="6.72992">
        <ele>1149.2</ele>
        <time>2023-08-17T15:22:04Z</time>
      </trkpt>
      <trkpt lat="46.10139" lon="6.73">
        <ele>1151.7</ele>
        <time>2023-08-17T15:22:12Z</time>
      </trkpt>
      <trkpt lat="46.10158" lon="6.72993">
        <ele>1153.5</ele>
        <time>2023-08-17T15:22:21Z</time>
      </trkpt>
      <trkpt lat="46.10177" lon="6.72986">
        <ele>1155.4</ele>
        <time>2023-08-17T15:22:29Z</time>
      </trkpt>
      <trkpt lat="46.10193" lon="6.72999">
        <ele>1157.6</ele>
        <time>2023-08-17T15:22:38Z</time>
      </trkpt>
      <trkpt lat="46.10201" lon="6.73026">
        <ele>1160</ele>
        <time>2023-08-17T15:22:47Z</time>
      </trkpt>
      <trkpt lat="46.10211" lon="6.73049">
        <ele>1162.2</ele>
        <time>2023-08-17T15:22:56Z</time>
      </trkpt>
      <trkpt lat="46.10228" lon="6.73062">
        <ele>1164.3</ele>
        <time>2023-08-17T15:23:03Z</time>
      </trkpt>
      <trkpt lat="46.10246" lon="6.73063">
        <ele>1166.4</ele>
        <time>2023-08-17T15:23:10Z</time>
      </trkpt>
      <trkpt lat="46.10264" lon="6.73062">
        <ele>1168.7</ele>
        <time>2023-08-17T15:23:18Z</time>
      </trkpt>
      <trkpt lat="46.10279" lon="6.73047">
        <ele>1169.7</ele>
        <time>2023-08-17T15:23:26Z</time>
      </trkpt>
      <trkpt lat="46.10273" lon="6.73022">
        <ele>1169.6</ele>
        <time>2023-08-17T15:23:33Z</time>
      </trkpt>
      <trkpt lat="46.10265" lon="6.72997">
        <ele>1169.6</ele>
        <time>2023-08-17T15:23:41Z</time>
      </trkpt>
      <trkpt lat="46.10259" lon="6.72973">
        <ele>1169.8</ele>
        <time>2023-08-17T15:23:48Z</time>
      </trkpt>
      <trkpt lat="46.10249" lon="6.72949">
        <ele>1170</ele>
        <time>2023-08-17T15:23:54Z</time>
      </trkpt>
      <trkpt lat="46.10244" lon="6.72924">
        <ele>1170.2</ele>
        <time>2023-08-17T15:24:01Z</time>
      </trkpt>
      <trkpt lat="46.10236" lon="6.72899">
        <ele>1170.7</ele>
        <time>2023-08-17T15:24:08Z</time>
      </trkpt>
      <trkpt lat="46.10237" lon="6.72872">
        <ele>1171.4</ele>
        <time>2023-08-17T15:24:15Z</time>
      </trkpt>
      <trkpt lat="46.10233" lon="6.72868">
        <ele>1171.6</ele>
        <time>2023-08-17T15:24:16Z</time>
      </trkpt>
      <trkpt lat="46.10217" lon="6.72848">
        <ele>1172.7</ele>
        <time>2023-08-17T15:24:25Z</time>
      </trkpt>
      <trkpt lat="46.10211" lon="6.72821">
        <ele>1173.6</ele>
        <time>2023-08-17T15:24:31Z</time>
      </trkpt>
      <trkpt lat="46.10206" lon="6.72794">
        <ele>1174.8</ele>
        <time>2023-08-17T15:24:38Z</time>
      </trkpt>
      <trkpt lat="46.10204" lon="6.72767">
        <ele>1175.5</ele>
        <time>2023-08-17T15:24:45Z</time>
      </trkpt>
      <trkpt lat="46.10198" lon="6.72738">
        <ele>1175.6</ele>
        <time>2023-08-17T15:24:52Z</time>
      </trkpt>
      <trkpt lat="46.10189" lon="6.72716">
        <ele>1175.8</ele>
        <time>2023-08-17T15:24:58Z</time>
      </trkpt>
      <trkpt lat="46.10174" lon="6.72698">
        <ele>1175.9</ele>
        <time>2023-08-17T15:25:04Z</time>
      </trkpt>
      <trkpt lat="46.10158" lon="6.72681">
        <ele>1175.9</ele>
        <time>2023-08-17T15:25:10Z</time>
      </trkpt>
      <trkpt lat="46.10145" lon="6.72656">
        <ele>1175.9</ele>
        <time>2023-08-17T15:25:16Z</time>
      </trkpt>
      <trkpt lat="46.10137" lon="6.72629">
        <ele>1175.8</ele>
        <time>2023-08-17T15:25:22Z</time>
      </trkpt>
      <trkpt lat="46.10133" lon="6.72602">
        <ele>1175.8</ele>
        <time>2023-08-17T15:25:28Z</time>
      </trkpt>
      <trkpt lat="46.10126" lon="6.72575">
        <ele>1176</ele>
        <time>2023-08-17T15:25:34Z</time>
      </trkpt>
      <trkpt lat="46.10119" lon="6.72548">
        <ele>1177</ele>
        <time>2023-08-17T15:25:41Z</time>
      </trkpt>
      <trkpt lat="46.10113" lon="6.72518">
        <ele>1177.9</ele>
        <time>2023-08-17T15:25:48Z</time>
      </trkpt>
      <trkpt lat="46.1011" lon="6.72491">
        <ele>1178.8</ele>
        <time>2023-08-17T15:25:55Z</time>
      </trkpt>
      <trkpt lat="46.10113" lon="6.72463">
        <ele>1179.9</ele>
        <time>2023-08-17T15:26:03Z</time>
      </trkpt>
      <trkpt lat="46.1013" lon="6.72454">
        <ele>1182.2</ele>
        <time>2023-08-17T15:26:10Z</time>
      </trkpt>
      <trkpt lat="46.10142" lon="6.72473">
        <ele>1184</ele>
        <time>2023-08-17T15:26:18Z</time>
      </trkpt>
      <trkpt lat="46.10155" lon="6.72494">
        <ele>1186</ele>
        <time>2023-08-17T15:26:27Z</time>
      </trkpt>
      <trkpt lat="46.1017" lon="6.72508">
        <ele>1187.9</ele>
        <time>2023-08-17T15:26:36Z</time>
      </trkpt>
      <trkpt lat="46.10173" lon="6.72505">
        <ele>1188.9</ele>
        <time>2023-08-17T15:26:37Z</time>
      </trkpt>
      <trkpt lat="46.10176" lon="6.72478">
        <ele>1190.6</ele>
        <time>2023-08-17T15:26:47Z</time>
      </trkpt>
      <trkpt lat="46.10184" lon="6.72452">
        <ele>1192.6</ele>
        <time>2023-08-17T15:26:56Z</time>
      </trkpt>
      <trkpt lat="46.10194" lon="6.7243">
        <ele>1194.6</ele>
        <time>2023-08-17T15:27:04Z</time>
      </trkpt>
      <trkpt lat="46.10208" lon="6.72412">
        <ele>1197</ele>
        <time>2023-08-17T15:27:13Z</time>
      </trkpt>
      <trkpt lat="46.10225" lon="6.72405">
        <ele>1199.2</ele>
        <time>2023-08-17T15:27:21Z</time>
      </trkpt>
      <trkpt lat="46.10239" lon="6.72386">
        <ele>1201.8</ele>
        <time>2023-08-17T15:27:30Z</time>
      </trkpt>
      <trkpt lat="46.10249" lon="6.72363">
        <ele>1204.1</ele>
        <time>2023-08-17T15:27:38Z</time>
      </trkpt>
      <trkpt lat="46.10258" lon="6.72339">
        <ele>1206</ele>
        <time>2023-08-17T15:27:46Z</time>
      </trkpt>
      <trkpt lat="46.10268" lon="6.72315">
        <ele>1207.7</ele>
        <time>2023-08-17T15:27:54Z</time>
      </trkpt>
      <trkpt lat="46.10278" lon="6.72292">
        <ele>1209.1</ele>
        <time>2023-08-17T15:28:01Z</time>
      </trkpt>
      <trkpt lat="46.10291" lon="6.72271">
        <ele>1210.7</ele>
        <time>2023-08-17T15:28:08Z</time>
      </trkpt>
      <trkpt lat="46.10299" lon="6.72265">
        <ele>1211.5</ele>
        <time>2023-08-17T15:28:12Z</time>
      </trkpt>
      <trkpt lat="46.10301" lon="6.72288">
        <ele>1213.1</ele>
        <time>2023-08-17T15:28:20Z</time>
      </trkpt>
      <trkpt lat="46.10293" lon="6.72314">
        <ele>1215.5</ele>
        <time>2023-08-17T15:28:27Z</time>
      </trkpt>
      <trkpt lat="46.10287" lon="6.72339">
        <ele>1218.4</ele>
        <time>2023-08-17T15:28:34Z</time>
      </trkpt>
      <trkpt lat="46.10286" lon="6.72366">
        <ele>1221</ele>
        <time>2023-08-17T15:28:42Z</time>
      </trkpt>
      <trkpt lat="46.10286" lon="6.72394">
        <ele>1223.7</ele>
        <time>2023-08-17T15:28:50Z</time>
      </trkpt>
      <trkpt lat="46.10289" lon="6.72422">
        <ele>1226.6</ele>
        <time>2023-08-17T15:28:59Z</time>
      </trkpt>
      <trkpt lat="46.10292" lon="6.72449">
        <ele>1229.4</ele>
        <time>2023-08-17T15:29:10Z</time>
      </trkpt>
      <trkpt lat="46.10295" lon="6.72474">
        <ele>1231.8</ele>
        <time>2023-08-17T15:29:19Z</time>
      </trkpt>
      <trkpt lat="46.10305" lon="6.725">
        <ele>1233.6</ele>
        <time>2023-08-17T15:29:27Z</time>
      </trkpt>
      <trkpt lat="46.10313" lon="6.72527">
        <ele>1235.7</ele>
        <time>2023-08-17T15:29:35Z</time>
      </trkpt>
      <trkpt lat="46.10324" lon="6.72538">
        <ele>1237.6</ele>
        <time>2023-08-17T15:29:41Z</time>
      </trkpt>
      <trkpt lat="46.1033" lon="6.72513">
        <ele>1239.4</ele>
        <time>2023-08-17T15:29:52Z</time>
      </trkpt>
      <trkpt lat="46.10332" lon="6.72486">
        <ele>1240.9</ele>
        <time>2023-08-17T15:29:58Z</time>
      </trkpt>
      <trkpt lat="46.10339" lon="6.72458">
        <ele>1242.8</ele>
        <time>2023-08-17T15:30:04Z</time>
      </trkpt>
      <trkpt lat="46.10351" lon="6.72438">
        <ele>1244.7</ele>
        <time>2023-08-17T15:30:11Z</time>
      </trkpt>
      <trkpt lat="46.10365" lon="6.7242">
        <ele>1247</ele>
        <time>2023-08-17T15:30:19Z</time>
      </trkpt>
      <trkpt lat="46.10376" lon="6.72395">
        <ele>1249.4</ele>
        <time>2023-08-17T15:30:27Z</time>
      </trkpt>
      <trkpt lat="46.10388" lon="6.72377">
        <ele>1251.6</ele>
        <time>2023-08-17T15:30:35Z</time>
      </trkpt>
      <trkpt lat="46.10402" lon="6.72356">
        <ele>1254.2</ele>
        <time>2023-08-17T15:30:45Z</time>
      </trkpt>
      <trkpt lat="46.10408" lon="6.7238">
        <ele>1256.6</ele>
        <time>2023-08-17T15:30:56Z</time>
      </trkpt>
      <trkpt lat="46.10403" lon="6.72407">
        <ele>1258.7</ele>
        <time>2023-08-17T15:31:04Z</time>
      </trkpt>
      <trkpt lat="46.10403" lon="6.72436">
        <ele>1261.2</ele>
        <time>2023-08-17T15:31:13Z</time>
      </trkpt>
      <trkpt lat="46.10401" lon="6.72463">
        <ele>1264</ele>
        <time>2023-08-17T15:31:22Z</time>
      </trkpt>
      <trkpt lat="46.10408" lon="6.72486">
        <ele>1266.6</ele>
        <time>2023-08-17T15:31:31Z</time>
      </trkpt>
      <trkpt lat="46.10413" lon="6.72489">
        <ele>1267.3</ele>
        <time>2023-08-17T15:31:32Z</time>
      </trkpt>
      <trkpt lat="46.10431" lon="6.7249">
        <ele>1268.9</ele>
        <time>2023-08-17T15:31:40Z</time>
      </trkpt>
      <trkpt lat="46.10449" lon="6.72486">
        <ele>1272</ele>
        <time>2023-08-17T15:31:49Z</time>
      </trkpt>
      <trkpt lat="46.10467" lon="6.72492">
        <ele>1274.6</ele>
        <time>2023-08-17T15:31:57Z</time>
      </trkpt>
      <trkpt lat="46.10484" lon="6.72506">
        <ele>1277.3</ele>
        <time>2023-08-17T15:32:05Z</time>
      </trkpt>
      <trkpt lat="46.10499" lon="6.72523">
        <ele>1279.7</ele>
        <time>2023-08-17T15:32:14Z</time>
      </trkpt>
      <trkpt lat="46.10516" lon="6.72538">
        <ele>1282.2</ele>
        <time>2023-08-17T15:32:22Z</time>
      </trkpt>
      <trkpt lat="46.10532" lon="6.72555">
        <ele>1284.9</ele>
        <time>2023-08-17T15:32:31Z</time>
      </trkpt>
      <trkpt lat="46.10548" lon="6.72572">
        <ele>1287.3</ele>
        <time>2023-08-17T15:32:41Z</time>
      </trkpt>
      <trkpt lat="46.10561" lon="6.72589">
        <ele>1289.3</ele>
        <time>2023-08-17T15:32:51Z</time>
      </trkpt>
      <trkpt lat="46.1057" lon="6.72613">
        <ele>1291.4</ele>
        <time>2023-08-17T15:33:00Z</time>
      </trkpt>
      <trkpt lat="46.10579" lon="6.72617">
        <ele>1292.6</ele>
        <time>2023-08-17T15:33:03Z</time>
      </trkpt>
      <trkpt lat="46.1059" lon="6.72614">
        <ele>1294.3</ele>
        <time>2023-08-17T15:33:08Z</time>
      </trkpt>
      <trkpt lat="46.10597" lon="6.72588">
        <ele>1296.8</ele>
        <time>2023-08-17T15:33:17Z</time>
      </trkpt>
      <trkpt lat="46.10599" lon="6.72559">
        <ele>1299.7</ele>
        <time>2023-08-17T15:33:26Z</time>
      </trkpt>
      <trkpt lat="46.10599" lon="6.72531">
        <ele>1302.7</ele>
        <time>2023-08-17T15:33:35Z</time>
      </trkpt>
      <trkpt lat="46.10603" lon="6.72503">
        <ele>1305.7</ele>
        <time>2023-08-17T15:33:44Z</time>
      </trkpt>
      <trkpt lat="46.1061" lon="6.72477">
        <ele>1308.4</ele>
        <time>2023-08-17T15:33:53Z</time>
      </trkpt>
      <trkpt lat="46.10611" lon="6.7245">
        <ele>1310.6</ele>
        <time>2023-08-17T15:34:02Z</time>
      </trkpt>
      <trkpt lat="46.10624" lon="6.72433">
        <ele>1312.6</ele>
        <time>2023-08-17T15:34:12Z</time>
      </trkpt>
      <trkpt lat="46.10642" lon="6.72438">
        <ele>1314.7</ele>
        <time>2023-08-17T15:34:21Z</time>
      </trkpt>
      <trkpt lat="46.10647" lon="6.72465">
        <ele>1317</ele>
        <time>2023-08-17T15:34:30Z</time>
      </trkpt>
      <trkpt lat="46.10654" lon="6.72491">
        <ele>1319</ele>
        <time>2023-08-17T15:34:39Z</time>
      </trkpt>
      <trkpt lat="46.10672" lon="6.725">
        <ele>1321.6</ele>
        <time>2023-08-17T15:34:48Z</time>
      </trkpt>
      <trkpt lat="46.1069" lon="6.72489">
        <ele>1324.3</ele>
        <time>2023-08-17T15:34:56Z</time>
      </trkpt>
      <trkpt lat="46.10703" lon="6.72471">
        <ele>1326.8</ele>
        <time>2023-08-17T15:35:05Z</time>
      </trkpt>
      <trkpt lat="46.1071" lon="6.72446">
        <ele>1329.1</ele>
        <time>2023-08-17T15:35:16Z</time>
      </trkpt>
      <trkpt lat="46.1072" lon="6.72435">
        <ele>1330.5</ele>
        <time>2023-08-17T15:35:22Z</time>
      </trkpt>
      <trkpt lat="46.10727" lon="6.72459">
        <ele>1333.2</ele>
        <time>2023-08-17T15:35:32Z</time>
      </trkpt>
      <trkpt lat="46.10736" lon="6.72484">
        <ele>1335.2</ele>
        <time>2023-08-17T15:35:41Z</time>
      </trkpt>
      <trkpt lat="46.10748" lon="6.72505">
        <ele>1337.6</ele>
        <time>2023-08-17T15:35:50Z</time>
      </trkpt>
      <trkpt lat="46.10764" lon="6.7252">
        <ele>1340</ele>
        <time>2023-08-17T15:35:58Z</time>
      </trkpt>
      <trkpt lat="46.10774" lon="6.72545">
        <ele>1342.3</ele>
        <time>2023-08-17T15:36:06Z</time>
      </trkpt>
      <trkpt lat="46.10782" lon="6.72569">
        <ele>1344.6</ele>
        <time>2023-08-17T15:36:13Z</time>
      </trkpt>
      <trkpt lat="46.10795" lon="6.72591">
        <ele>1347.3</ele>
        <time>2023-08-17T15:36:21Z</time>
      </trkpt>
      <trkpt lat="46.10805" lon="6.72616">
        <ele>1349.9</ele>
        <time>2023-08-17T15:36:29Z</time>
      </trkpt>
      <trkpt lat="46.10818" lon="6.72634">
        <ele>1352.7</ele>
        <time>2023-08-17T15:36:38Z</time>
      </trkpt>
      <trkpt lat="46.10825" lon="6.7266">
        <ele>1355.7</ele>
        <time>2023-08-17T15:36:47Z</time>
      </trkpt>
      <trkpt lat="46.10837" lon="6.72681">
        <ele>1358.2</ele>
        <time>2023-08-17T15:36:58Z</time>
      </trkpt>
      <trkpt lat="46.10852" lon="6.72704">
        <ele>1361.4</ele>
        <time>2023-08-17T15:37:07Z</time>
      </trkpt>
      <trkpt lat="46.10867" lon="6.72719">
        <ele>1364.3</ele>
        <time>2023-08-17T15:37:15Z</time>
      </trkpt>
      <trkpt lat="46.10883" lon="6.72737">
        <ele>1374</ele>
        <time>2023-08-17T15:37:23Z</time>
      </trkpt>
      <trkpt lat="46.10888" lon="6.72739">
        <ele>1374.9</ele>
        <time>2023-08-17T15:37:25Z</time>
      </trkpt>
      <trkpt lat="46.10895" lon="6.72711">
        <ele>1378.1</ele>
        <time>2023-08-17T15:37:39Z</time>
      </trkpt>
      <trkpt lat="46.10889" lon="6.72685">
        <ele>1379.7</ele>
        <time>2023-08-17T15:37:49Z</time>
      </trkpt>
      <trkpt lat="46.10878" lon="6.72662">
        <ele>1380.5</ele>
        <time>2023-08-17T15:37:58Z</time>
      </trkpt>
      <trkpt lat="46.10871" lon="6.72632">
        <ele>1380.9</ele>
        <time>2023-08-17T15:38:04Z</time>
      </trkpt>
      <trkpt lat="46.10864" lon="6.72607">
        <ele>1381.1</ele>
        <time>2023-08-17T15:38:12Z</time>
      </trkpt>
      <trkpt lat="46.10853" lon="6.72583">
        <ele>1381.2</ele>
        <time>2023-08-17T15:38:19Z</time>
      </trkpt>
      <trkpt lat="46.10846" lon="6.72559">
        <ele>1381.2</ele>
        <time>2023-08-17T15:38:24Z</time>
      </trkpt>
      <trkpt lat="46.10839" lon="6.72529">
        <ele>1381.6</ele>
        <time>2023-08-17T15:38:29Z</time>
      </trkpt>
      <trkpt lat="46.10834" lon="6.72503">
        <ele>1382.2</ele>
        <time>2023-08-17T15:38:33Z</time>
      </trkpt>
      <trkpt lat="46.10831" lon="6.72476">
        <ele>1383.1</ele>
        <time>2023-08-17T15:38:39Z</time>
      </trkpt>
      <trkpt lat="46.10834" lon="6.72468">
        <ele>1383.2</ele>
        <time>2023-08-17T15:38:40Z</time>
      </trkpt>
      <trkpt lat="46.10844" lon="6.72443">
        <ele>1383.2</ele>
        <time>2023-08-17T15:38:45Z</time>
      </trkpt>
      <trkpt lat="46.10846" lon="6.72414">
        <ele>1383.9</ele>
        <time>2023-08-17T15:38:50Z</time>
      </trkpt>
      <trkpt lat="46.10837" lon="6.72385">
        <ele>1383.9</ele>
        <time>2023-08-17T15:38:55Z</time>
      </trkpt>
      <trkpt lat="46.1084" lon="6.72354">
        <ele>1383.3</ele>
        <time>2023-08-17T15:39:00Z</time>
      </trkpt>
      <trkpt lat="46.10843" lon="6.72328">
        <ele>1382.8</ele>
        <time>2023-08-17T15:39:04Z</time>
      </trkpt>
      <trkpt lat="46.10842" lon="6.72301">
        <ele>1383.1</ele>
        <time>2023-08-17T15:39:09Z</time>
      </trkpt>
      <trkpt lat="46.10849" lon="6.72272">
        <ele>1382.8</ele>
        <time>2023-08-17T15:39:15Z</time>
      </trkpt>
      <trkpt lat="46.10858" lon="6.72249">
        <ele>1380.9</ele>
        <time>2023-08-17T15:39:20Z</time>
      </trkpt>
      <trkpt lat="46.10866" lon="6.72225">
        <ele>1378.1</ele>
        <time>2023-08-17T15:39:25Z</time>
      </trkpt>
      <trkpt lat="46.1088" lon="6.72206">
        <ele>1375.4</ele>
        <time>2023-08-17T15:39:31Z</time>
      </trkpt>
      <trkpt lat="46.10881" lon="6.7218">
        <ele>1373.5</ele>
        <time>2023-08-17T15:39:38Z</time>
      </trkpt>
      <trkpt lat="46.10877" lon="6.72153">
        <ele>1371.1</ele>
        <time>2023-08-17T15:39:44Z</time>
      </trkpt>
      <trkpt lat="46.10875" lon="6.72126">
        <ele>1371</ele>
        <time>2023-08-17T15:39:50Z</time>
      </trkpt>
      <trkpt lat="46.1088" lon="6.72101">
        <ele>1372.4</ele>
        <time>2023-08-17T15:39:59Z</time>
      </trkpt>
      <trkpt lat="46.10896" lon="6.7208">
        <ele>1372.4</ele>
        <time>2023-08-17T15:40:06Z</time>
      </trkpt>
      <trkpt lat="46.10911" lon="6.72064">
        <ele>1371.9</ele>
        <time>2023-08-17T15:40:11Z</time>
      </trkpt>
      <trkpt lat="46.10926" lon="6.72044">
        <ele>1371.8</ele>
        <time>2023-08-17T15:40:17Z</time>
      </trkpt>
      <trkpt lat="46.10938" lon="6.72022">
        <ele>1371.7</ele>
        <time>2023-08-17T15:40:23Z</time>
      </trkpt>
      <trkpt lat="46.10946" lon="6.71993">
        <ele>1373.1</ele>
        <time>2023-08-17T15:40:31Z</time>
      </trkpt>
      <trkpt lat="46.10946" lon="6.71986">
        <ele>1373.4</ele>
        <time>2023-08-17T15:40:33Z</time>
      </trkpt>
      <trkpt lat="46.10954" lon="6.71955">
        <ele>1373.3</ele>
        <time>2023-08-17T15:40:40Z</time>
      </trkpt>
      <trkpt lat="46.10964" lon="6.71931">
        <ele>1372.9</ele>
        <time>2023-08-17T15:40:44Z</time>
      </trkpt>
      <trkpt lat="46.10967" lon="6.71929">
        <ele>1373</ele>
        <time>2023-08-17T15:40:45Z</time>
      </trkpt>
      <trkpt lat="46.10987" lon="6.71927">
        <ele>1377</ele>
        <time>2023-08-17T15:40:54Z</time>
      </trkpt>
      <trkpt lat="46.1099" lon="6.71928">
        <ele>1377.9</ele>
        <time>2023-08-17T15:40:55Z</time>
      </trkpt>
      <trkpt lat="46.10992" lon="6.71928">
        <ele>1378.5</ele>
        <time>2023-08-17T15:40:57Z</time>
      </trkpt>
      <trkpt lat="46.11002" lon="6.71928">
        <ele>1381.5</ele>
        <time>2023-08-17T15:41:06Z</time>
      </trkpt>
      <trkpt lat="46.11007" lon="6.71931">
        <ele>1383.2</ele>
        <time>2023-08-17T15:41:12Z</time>
      </trkpt>
      <trkpt lat="46.11007" lon="6.71933">
        <ele>1383.6</ele>
        <time>2023-08-17T15:41:14Z</time>
      </trkpt>
      <trkpt lat="46.11008" lon="6.7194">
        <ele>1385.2</ele>
        <time>2023-08-17T15:41:19Z</time>
      </trkpt>
      <trkpt lat="46.11017" lon="6.71964">
        <ele>1390.8</ele>
        <time>2023-08-17T15:41:30Z</time>
      </trkpt>
      <trkpt lat="46.11017" lon="6.71992">
        <ele>1396.7</ele>
        <time>2023-08-17T15:41:43Z</time>
      </trkpt>
      <trkpt lat="46.11017" lon="6.71994">
        <ele>1397.1</ele>
        <time>2023-08-17T15:41:45Z</time>
      </trkpt>
      <trkpt lat="46.11018" lon="6.71997">
        <ele>1397.6</ele>
        <time>2023-08-17T15:41:47Z</time>
      </trkpt>
      <trkpt lat="46.11023" lon="6.72004">
        <ele>1399.8</ele>
        <time>2023-08-17T15:41:56Z</time>
      </trkpt>
      <trkpt lat="46.11023" lon="6.72007">
        <ele>1400.3</ele>
        <time>2023-08-17T15:41:58Z</time>
      </trkpt>
      <trkpt lat="46.11024" lon="6.72008">
        <ele>1400.7</ele>
        <time>2023-08-17T15:42:00Z</time>
      </trkpt>
      <trkpt lat="46.11025" lon="6.7201">
        <ele>1401.2</ele>
        <time>2023-08-17T15:42:02Z</time>
      </trkpt>
      <trkpt lat="46.11029" lon="6.72028">
        <ele>1404.9</ele>
        <time>2023-08-17T15:42:12Z</time>
      </trkpt>
      <trkpt lat="46.11026" lon="6.72054">
        <ele>1410</ele>
        <time>2023-08-17T15:42:26Z</time>
      </trkpt>
      <trkpt lat="46.11028" lon="6.72058">
        <ele>1411</ele>
        <time>2023-08-17T15:42:30Z</time>
      </trkpt>
      <trkpt lat="46.11031" lon="6.72064">
        <ele>1412.5</ele>
        <time>2023-08-17T15:42:34Z</time>
      </trkpt>
      <trkpt lat="46.11041" lon="6.72087">
        <ele>1416.9</ele>
        <time>2023-08-17T15:42:45Z</time>
      </trkpt>
      <trkpt lat="46.11049" lon="6.72106">
        <ele>1420.1</ele>
        <time>2023-08-17T15:42:57Z</time>
      </trkpt>
      <trkpt lat="46.1105" lon="6.72127">
        <ele>1423.8</ele>
        <time>2023-08-17T15:43:07Z</time>
      </trkpt>
      <trkpt lat="46.1105" lon="6.72149">
        <ele>1427.6</ele>
        <time>2023-08-17T15:43:16Z</time>
      </trkpt>
      <trkpt lat="46.11049" lon="6.72155">
        <ele>1429</ele>
        <time>2023-08-17T15:43:20Z</time>
      </trkpt>
      <trkpt lat="46.11051" lon="6.72158">
        <ele>1429.6</ele>
        <time>2023-08-17T15:43:23Z</time>
      </trkpt>
      <trkpt lat="46.11059" lon="6.72183">
        <ele>1434</ele>
        <time>2023-08-17T15:43:35Z</time>
      </trkpt>
      <trkpt lat="46.11067" lon="6.72207">
        <ele>1436.2</ele>
        <time>2023-08-17T15:43:45Z</time>
      </trkpt>
      <trkpt lat="46.11079" lon="6.72226">
        <ele>1438.5</ele>
        <time>2023-08-17T15:43:58Z</time>
      </trkpt>
      <trkpt lat="46.11096" lon="6.72236">
        <ele>1442.9</ele>
        <time>2023-08-17T15:44:08Z</time>
      </trkpt>
      <trkpt lat="46.11109" lon="6.72257">
        <ele>1446.6</ele>
        <time>2023-08-17T15:44:18Z</time>
      </trkpt>
      <trkpt lat="46.1112" lon="6.72277">
        <ele>1450.1</ele>
        <time>2023-08-17T15:44:29Z</time>
      </trkpt>
      <trkpt lat="46.11125" lon="6.72283">
        <ele>1451.9</ele>
        <time>2023-08-17T15:44:35Z</time>
      </trkpt>
      <trkpt lat="46.11128" lon="6.72285">
        <ele>1452.5</ele>
        <time>2023-08-17T15:44:37Z</time>
      </trkpt>
      <trkpt lat="46.11136" lon="6.72308">
        <ele>1458.2</ele>
        <time>2023-08-17T15:44:50Z</time>
      </trkpt>
      <trkpt lat="46.11139" lon="6.72318">
        <ele>1460.9</ele>
        <time>2023-08-17T15:44:58Z</time>
      </trkpt>
      <trkpt lat="46.11142" lon="6.72339">
        <ele>1467.1</ele>
        <time>2023-08-17T15:45:13Z</time>
      </trkpt>
      <trkpt lat="46.11141" lon="6.72341">
        <ele>1467.5</ele>
        <time>2023-08-17T15:45:15Z</time>
      </trkpt>
      <trkpt lat="46.11139" lon="6.72344">
        <ele>1468.8</ele>
        <time>2023-08-17T15:45:19Z</time>
      </trkpt>
      <trkpt lat="46.11137" lon="6.72361">
        <ele>1472.9</ele>
        <time>2023-08-17T15:45:31Z</time>
      </trkpt>
      <trkpt lat="46.11138" lon="6.72372">
        <ele>1475.5</ele>
        <time>2023-08-17T15:45:38Z</time>
      </trkpt>
      <trkpt lat="46.11141" lon="6.72372">
        <ele>1476.4</ele>
        <time>2023-08-17T15:45:40Z</time>
      </trkpt>
      <trkpt lat="46.11143" lon="6.72373">
        <ele>1477.3</ele>
        <time>2023-08-17T15:45:42Z</time>
      </trkpt>
      <trkpt lat="46.11147" lon="6.72375">
        <ele>1478.5</ele>
        <time>2023-08-17T15:45:45Z</time>
      </trkpt>
      <trkpt lat="46.11165" lon="6.72382">
        <ele>1483.6</ele>
        <time>2023-08-17T15:45:59Z</time>
      </trkpt>
      <trkpt lat="46.11175" lon="6.72402">
        <ele>1487.4</ele>
        <time>2023-08-17T15:46:09Z</time>
      </trkpt>
      <trkpt lat="46.11191" lon="6.72415">
        <ele>1491.5</ele>
        <time>2023-08-17T15:46:21Z</time>
      </trkpt>
      <trkpt lat="46.11207" lon="6.72431">
        <ele>1495.2</ele>
        <time>2023-08-17T15:46:32Z</time>
      </trkpt>
      <trkpt lat="46.11224" lon="6.72445">
        <ele>1499.9</ele>
        <time>2023-08-17T15:46:43Z</time>
      </trkpt>
      <trkpt lat="46.11242" lon="6.72449">
        <ele>1505.7</ele>
        <time>2023-08-17T15:46:57Z</time>
      </trkpt>
      <trkpt lat="46.11261" lon="6.72455">
        <ele>1511.5</ele>
        <time>2023-08-17T15:47:15Z</time>
      </trkpt>
      <trkpt lat="46.11278" lon="6.72458">
        <ele>1517.1</ele>
        <time>2023-08-17T15:47:33Z</time>
      </trkpt>
      <trkpt lat="46.11297" lon="6.72451">
        <ele>1522.7</ele>
        <time>2023-08-17T15:47:51Z</time>
      </trkpt>
      <trkpt lat="46.11307" lon="6.72445">
        <ele>1526.2</ele>
        <time>2023-08-17T15:48:02Z</time>
      </trkpt>
      <trkpt lat="46.11293" lon="6.7243">
        <ele>1531.2</ele>
        <time>2023-08-17T15:48:18Z</time>
      </trkpt>
      <trkpt lat="46.11279" lon="6.72425">
        <ele>1535.8</ele>
        <time>2023-08-17T15:48:30Z</time>
      </trkpt>
      <trkpt lat="46.11272" lon="6.724">
        <ele>1541.9</ele>
        <time>2023-08-17T15:48:48Z</time>
      </trkpt>
      <trkpt lat="46.1126" lon="6.72381">
        <ele>1547.1</ele>
        <time>2023-08-17T15:49:01Z</time>
      </trkpt>
      <trkpt lat="46.11252" lon="6.72367">
        <ele>1550.2</ele>
        <time>2023-08-17T15:49:10Z</time>
      </trkpt>
      <trkpt lat="46.11251" lon="6.72339">
        <ele>1555.5</ele>
        <time>2023-08-17T15:49:21Z</time>
      </trkpt>
      <trkpt lat="46.11256" lon="6.72319">
        <ele>1560.2</ele>
        <time>2023-08-17T15:49:33Z</time>
      </trkpt>
      <trkpt lat="46.11254" lon="6.72304">
        <ele>1563.7</ele>
        <time>2023-08-17T15:49:45Z</time>
      </trkpt>
      <trkpt lat="46.11258" lon="6.72304">
        <ele>1565.1</ele>
        <time>2023-08-17T15:49:50Z</time>
      </trkpt>
      <trkpt lat="46.11275" lon="6.72294">
        <ele>1571.7</ele>
        <time>2023-08-17T15:50:08Z</time>
      </trkpt>
      <trkpt lat="46.11289" lon="6.72292">
        <ele>1576.5</ele>
        <time>2023-08-17T15:50:22Z</time>
      </trkpt>
      <trkpt lat="46.11298" lon="6.72296">
        <ele>1580.1</ele>
        <time>2023-08-17T15:50:32Z</time>
      </trkpt>
      <trkpt lat="46.113" lon="6.72295">
        <ele>1580.9</ele>
        <time>2023-08-17T15:50:34Z</time>
      </trkpt>
      <trkpt lat="46.11307" lon="6.72293">
        <ele>1584.2</ele>
        <time>2023-08-17T15:50:42Z</time>
      </trkpt>
      <trkpt lat="46.1131" lon="6.7229">
        <ele>1585.8</ele>
        <time>2023-08-17T15:50:48Z</time>
      </trkpt>
      <trkpt lat="46.1131" lon="6.72289">
        <ele>1586.1</ele>
        <time>2023-08-17T15:50:50Z</time>
      </trkpt>
      <trkpt lat="46.1131" lon="6.72282">
        <ele>1588.5</ele>
        <time>2023-08-17T15:50:58Z</time>
      </trkpt>
      <trkpt lat="46.1131" lon="6.72283">
        <ele>1588.9</ele>
        <time>2023-08-17T15:51:00Z</time>
      </trkpt>
      <trkpt lat="46.11312" lon="6.72264">
        <ele>1593.7</ele>
        <time>2023-08-17T15:51:19Z</time>
      </trkpt>
      <trkpt lat="46.11307" lon="6.72239">
        <ele>1599.3</ele>
        <time>2023-08-17T15:51:37Z</time>
      </trkpt>
      <trkpt lat="46.11303" lon="6.72214">
        <ele>1605.3</ele>
        <time>2023-08-17T15:51:53Z</time>
      </trkpt>
      <trkpt lat="46.11301" lon="6.72189">
        <ele>1611.1</ele>
        <time>2023-08-17T15:52:11Z</time>
      </trkpt>
      <trkpt lat="46.11298" lon="6.72163">
        <ele>1615.2</ele>
        <time>2023-08-17T15:52:24Z</time>
      </trkpt>
      <trkpt lat="46.11297" lon="6.72137">
        <ele>1617.3</ele>
        <time>2023-08-17T15:52:34Z</time>
      </trkpt>
      <trkpt lat="46.11299" lon="6.72111">
        <ele>1620.7</ele>
        <time>2023-08-17T15:52:45Z</time>
      </trkpt>
      <trkpt lat="46.11305" lon="6.72086">
        <ele>1624.6</ele>
        <time>2023-08-17T15:52:57Z</time>
      </trkpt>
      <trkpt lat="46.11315" lon="6.72062">
        <ele>1630.1</ele>
        <time>2023-08-17T15:53:14Z</time>
      </trkpt>
      <trkpt lat="46.11327" lon="6.72043">
        <ele>1634.2</ele>
        <time>2023-08-17T15:53:25Z</time>
      </trkpt>
      <trkpt lat="46.11334" lon="6.72018">
        <ele>1637.7</ele>
        <time>2023-08-17T15:53:36Z</time>
      </trkpt>
      <trkpt lat="46.11343" lon="6.71994">
        <ele>1642</ele>
        <time>2023-08-17T15:53:49Z</time>
      </trkpt>
      <trkpt lat="46.11351" lon="6.7197">
        <ele>1646.7</ele>
        <time>2023-08-17T15:54:04Z</time>
      </trkpt>
      <trkpt lat="46.11353" lon="6.71961">
        <ele>1648.3</ele>
        <time>2023-08-17T15:54:09Z</time>
      </trkpt>
      <trkpt lat="46.11363" lon="6.7194">
        <ele>1652.7</ele>
        <time>2023-08-17T15:54:22Z</time>
      </trkpt>
      <trkpt lat="46.11374" lon="6.71919">
        <ele>1656.9</ele>
        <time>2023-08-17T15:54:34Z</time>
      </trkpt>
      <trkpt lat="46.11385" lon="6.71899">
        <ele>1661.1</ele>
        <time>2023-08-17T15:54:46Z</time>
      </trkpt>
      <trkpt lat="46.114" lon="6.71882">
        <ele>1664.1</ele>
        <time>2023-08-17T15:54:56Z</time>
      </trkpt>
      <trkpt lat="46.11408" lon="6.7186">
        <ele>1666.8</ele>
        <time>2023-08-17T15:55:05Z</time>
      </trkpt>
      <trkpt lat="46.11415" lon="6.71833">
        <ele>1669.6</ele>
        <time>2023-08-17T15:55:14Z</time>
      </trkpt>
      <trkpt lat="46.11413" lon="6.71805">
        <ele>1672.2</ele>
        <time>2023-08-17T15:55:22Z</time>
      </trkpt>
      <trkpt lat="46.1141" lon="6.71777">
        <ele>1675.6</ele>
        <time>2023-08-17T15:55:31Z</time>
      </trkpt>
      <trkpt lat="46.11411" lon="6.71748">
        <ele>1678.1</ele>
        <time>2023-08-17T15:55:39Z</time>
      </trkpt>
      <trkpt lat="46.11416" lon="6.71721">
        <ele>1679.9</ele>
        <time>2023-08-17T15:55:47Z</time>
      </trkpt>
      <trkpt lat="46.11424" lon="6.71699">
        <ele>1682.1</ele>
        <time>2023-08-17T15:55:55Z</time>
      </trkpt>
      <trkpt lat="46.11432" lon="6.71724">
        <ele>1686.3</ele>
        <time>2023-08-17T15:56:05Z</time>
      </trkpt>
      <trkpt lat="46.11438" lon="6.7175">
        <ele>1690.4</ele>
        <time>2023-08-17T15:56:15Z</time>
      </trkpt>
      <trkpt lat="46.11449" lon="6.71771">
        <ele>1693.6</ele>
        <time>2023-08-17T15:56:25Z</time>
      </trkpt>
      <trkpt lat="46.11458" lon="6.71793">
        <ele>1696.6</ele>
        <time>2023-08-17T15:56:35Z</time>
      </trkpt>
      <trkpt lat="46.11469" lon="6.71816">
        <ele>1699.9</ele>
        <time>2023-08-17T15:56:45Z</time>
      </trkpt>
      <trkpt lat="46.11478" lon="6.71839">
        <ele>1704.4</ele>
        <time>2023-08-17T15:56:54Z</time>
      </trkpt>
      <trkpt lat="46.11488" lon="6.71862">
        <ele>1710.5</ele>
        <time>2023-08-17T15:57:06Z</time>
      </trkpt>
      <trkpt lat="46.11491" lon="6.71863">
        <ele>1711.3</ele>
        <time>2023-08-17T15:57:08Z</time>
      </trkpt>
      <trkpt lat="46.11502" lon="6.71881">
        <ele>1718.2</ele>
        <time>2023-08-17T15:57:24Z</time>
      </trkpt>
      <trkpt lat="46.11512" lon="6.71905">
        <ele>1725.6</ele>
        <time>2023-08-17T15:57:37Z</time>
      </trkpt>
      <trkpt lat="46.11518" lon="6.71929">
        <ele>1732.9</ele>
        <time>2023-08-17T15:57:52Z</time>
      </trkpt>
      <trkpt lat="46.1152" lon="6.71956">
        <ele>1739.9</ele>
        <time>2023-08-17T15:58:09Z</time>
      </trkpt>
      <trkpt lat="46.11524" lon="6.71984">
        <ele>1746.8</ele>
        <time>2023-08-17T15:58:23Z</time>
      </trkpt>
      <trkpt lat="46.11528" lon="6.72011">
        <ele>1752.8</ele>
        <time>2023-08-17T15:58:35Z</time>
      </trkpt>
      <trkpt lat="46.11529" lon="6.72024">
        <ele>1755.2</ele>
        <time>2023-08-17T15:58:40Z</time>
      </trkpt>
      <trkpt lat="46.11528" lon="6.7203">
        <ele>1758.3</ele>
        <time>2023-08-17T15:58:43Z</time>
      </trkpt>
      <trkpt lat="46.11534" lon="6.72037">
        <ele>1758</ele>
        <time>2023-08-17T16:03:18Z</time>
      </trkpt>
      <trkpt lat="46.11538" lon="6.72036">
        <ele>1757.7</ele>
        <time>2023-08-17T16:03:20Z</time>
      </trkpt>
      <trkpt lat="46.11556" lon="6.72035">
        <ele>1755.3</ele>
        <time>2023-08-17T16:03:28Z</time>
      </trkpt>
      <trkpt lat="46.11573" lon="6.72044">
        <ele>1753.1</ele>
        <time>2023-08-17T16:03:34Z</time>
      </trkpt>
      <trkpt lat="46.11594" lon="6.72047">
        <ele>1750.9</ele>
        <time>2023-08-17T16:03:41Z</time>
      </trkpt>
      <trkpt lat="46.11614" lon="6.7205">
        <ele>1748.4</ele>
        <time>2023-08-17T16:03:48Z</time>
      </trkpt>
      <trkpt lat="46.11634" lon="6.72046">
        <ele>1746.1</ele>
        <time>2023-08-17T16:03:55Z</time>
      </trkpt>
      <trkpt lat="46.11652" lon="6.72041">
        <ele>1744.1</ele>
        <time>2023-08-17T16:04:02Z</time>
      </trkpt>
      <trkpt lat="46.11672" lon="6.7204">
        <ele>1742.5</ele>
        <time>2023-08-17T16:04:10Z</time>
      </trkpt>
      <trkpt lat="46.11692" lon="6.72038">
        <ele>1741</ele>
        <time>2023-08-17T16:04:18Z</time>
      </trkpt>
      <trkpt lat="46.1171" lon="6.72035">
        <ele>1739.9</ele>
        <time>2023-08-17T16:04:25Z</time>
      </trkpt>
      <trkpt lat="46.11728" lon="6.72027">
        <ele>1739</ele>
        <time>2023-08-17T16:04:32Z</time>
      </trkpt>
      <trkpt lat="46.11746" lon="6.72022">
        <ele>1738</ele>
        <time>2023-08-17T16:04:39Z</time>
      </trkpt>
      <trkpt lat="46.11767" lon="6.72027">
        <ele>1736.6</ele>
        <time>2023-08-17T16:04:47Z</time>
      </trkpt>
      <trkpt lat="46.11787" lon="6.72029">
        <ele>1735.4</ele>
        <time>2023-08-17T16:04:54Z</time>
      </trkpt>
      <trkpt lat="46.11807" lon="6.72034">
        <ele>1734.1</ele>
        <time>2023-08-17T16:05:01Z</time>
      </trkpt>
      <trkpt lat="46.11827" lon="6.72038">
        <ele>1732.7</ele>
        <time>2023-08-17T16:05:08Z</time>
      </trkpt>
      <trkpt lat="46.11849" lon="6.72038">
        <ele>1733.4</ele>
        <time>2023-08-17T16:05:14Z</time>
      </trkpt>
      <trkpt lat="46.11867" lon="6.72035">
        <ele>1734.4</ele>
        <time>2023-08-17T16:05:19Z</time>
      </trkpt>
      <trkpt lat="46.11885" lon="6.72039">
        <ele>1735.5</ele>
        <time>2023-08-17T16:05:24Z</time>
      </trkpt>
      <trkpt lat="46.11903" lon="6.72043">
        <ele>1736.1</ele>
        <time>2023-08-17T16:05:30Z</time>
      </trkpt>
      <trkpt lat="46.11923" lon="6.72042">
        <ele>1738.5</ele>
        <time>2023-08-17T16:05:38Z</time>
      </trkpt>
      <trkpt lat="46.11941" lon="6.72036">
        <ele>1741.4</ele>
        <time>2023-08-17T16:05:46Z</time>
      </trkpt>
      <trkpt lat="46.11958" lon="6.72023">
        <ele>1745.4</ele>
        <time>2023-08-17T16:05:56Z</time>
      </trkpt>
      <trkpt lat="46.11975" lon="6.72013">
        <ele>1750.3</ele>
        <time>2023-08-17T16:06:07Z</time>
      </trkpt>
      <trkpt lat="46.11993" lon="6.72014">
        <ele>1756</ele>
        <time>2023-08-17T16:06:18Z</time>
      </trkpt>
      <trkpt lat="46.12011" lon="6.72009">
        <ele>1761.4</ele>
        <time>2023-08-17T16:06:33Z</time>
      </trkpt>
      <trkpt lat="46.12029" lon="6.72005">
        <ele>1765.8</ele>
        <time>2023-08-17T16:06:45Z</time>
      </trkpt>
      <trkpt lat="46.12047" lon="6.72003">
        <ele>1770.6</ele>
        <time>2023-08-17T16:06:58Z</time>
      </trkpt>
      <trkpt lat="46.12065" lon="6.71999">
        <ele>1776.1</ele>
        <time>2023-08-17T16:07:14Z</time>
      </trkpt>
      <trkpt lat="46.12084" lon="6.7199">
        <ele>1780.9</ele>
        <time>2023-08-17T16:07:27Z</time>
      </trkpt>
      <trkpt lat="46.12103" lon="6.71985">
        <ele>1784.8</ele>
        <time>2023-08-17T16:07:38Z</time>
      </trkpt>
      <trkpt lat="46.12121" lon="6.71982">
        <ele>1787.8</ele>
        <time>2023-08-17T16:07:47Z</time>
      </trkpt>
      <trkpt lat="46.1214" lon="6.71978">
        <ele>1790.5</ele>
        <time>2023-08-17T16:07:56Z</time>
      </trkpt>
      <trkpt lat="46.12158" lon="6.71974">
        <ele>1793.9</ele>
        <time>2023-08-17T16:08:06Z</time>
      </trkpt>
      <trkpt lat="46.12178" lon="6.71966">
        <ele>1796.5</ele>
        <time>2023-08-17T16:08:16Z</time>
      </trkpt>
      <trkpt lat="46.12197" lon="6.71957">
        <ele>1800.8</ele>
        <time>2023-08-17T16:08:23Z</time>
      </trkpt>
      <trkpt lat="46.12215" lon="6.71953">
        <ele>1803.6</ele>
        <time>2023-08-17T16:08:29Z</time>
      </trkpt>
      <trkpt lat="46.1223" lon="6.71933">
        <ele>1805.7</ele>
        <time>2023-08-17T16:08:35Z</time>
      </trkpt>
      <trkpt lat="46.12244" lon="6.71908">
        <ele>1806</ele>
        <time>2023-08-17T16:08:42Z</time>
      </trkpt>
      <trkpt lat="46.12262" lon="6.71902">
        <ele>1806.4</ele>
        <time>2023-08-17T16:08:48Z</time>
      </trkpt>
      <trkpt lat="46.12281" lon="6.71901">
        <ele>1807.7</ele>
        <time>2023-08-17T16:08:56Z</time>
      </trkpt>
      <trkpt lat="46.12299" lon="6.7189">
        <ele>1808.4</ele>
        <time>2023-08-17T16:09:07Z</time>
      </trkpt>
      <trkpt lat="46.12316" lon="6.71883">
        <ele>1809.4</ele>
        <time>2023-08-17T16:09:19Z</time>
      </trkpt>
      <trkpt lat="46.12333" lon="6.71876">
        <ele>1810.3</ele>
        <time>2023-08-17T16:09:30Z</time>
      </trkpt>
      <trkpt lat="46.12345" lon="6.71877">
        <ele>1811.3</ele>
        <time>2023-08-17T16:09:37Z</time>
      </trkpt>
      <trkpt lat="46.12357" lon="6.71897">
        <ele>1815.5</ele>
        <time>2023-08-17T16:09:50Z</time>
      </trkpt>
      <trkpt lat="46.12367" lon="6.71893">
        <ele>1819.1</ele>
        <time>2023-08-17T16:09:59Z</time>
      </trkpt>
      <trkpt lat="46.12385" lon="6.7189">
        <ele>1826.9</ele>
        <time>2023-08-17T16:10:16Z</time>
      </trkpt>
      <trkpt lat="46.12393" lon="6.71893">
        <ele>1829.8</ele>
        <time>2023-08-17T16:10:25Z</time>
      </trkpt>
      <trkpt lat="46.12398" lon="6.71892">
        <ele>1831.2</ele>
        <time>2023-08-17T16:10:31Z</time>
      </trkpt>
      <trkpt lat="46.12415" lon="6.71887">
        <ele>1834.9</ele>
        <time>2023-08-17T16:10:43Z</time>
      </trkpt>
      <trkpt lat="46.12426" lon="6.71888">
        <ele>1837.7</ele>
        <time>2023-08-17T16:10:50Z</time>
      </trkpt>
      <trkpt lat="46.12437" lon="6.71883">
        <ele>1841.7</ele>
        <time>2023-08-17T16:11:00Z</time>
      </trkpt>
      <trkpt lat="46.1244" lon="6.71885">
        <ele>1843.6</ele>
        <time>2023-08-17T16:11:04Z</time>
      </trkpt>
      <trkpt lat="46.12445" lon="6.71882">
        <ele>1846.2</ele>
        <time>2023-08-17T16:11:11Z</time>
      </trkpt>
      <trkpt lat="46.12463" lon="6.71881">
        <ele>1854.8</ele>
        <time>2023-08-17T16:11:34Z</time>
      </trkpt>
      <trkpt lat="46.12482" lon="6.71876">
        <ele>1862.9</ele>
        <time>2023-08-17T16:11:50Z</time>
      </trkpt>
      <trkpt lat="46.12487" lon="6.71873">
        <ele>1864.8</ele>
        <time>2023-08-17T16:11:54Z</time>
      </trkpt>
      <trkpt lat="46.12505" lon="6.7187">
        <ele>1866.4</ele>
        <time>2023-08-17T16:12:06Z</time>
      </trkpt>
      <trkpt lat="46.1251" lon="6.7187">
        <ele>1865.4</ele>
        <time>2023-08-17T16:12:09Z</time>
      </trkpt>
      <trkpt lat="46.12513" lon="6.71871">
        <ele>1864.5</ele>
        <time>2023-08-17T16:12:11Z</time>
      </trkpt>
      <trkpt lat="46.12528" lon="6.71883">
        <ele>1857.9</ele>
        <time>2023-08-17T16:12:22Z</time>
      </trkpt>
      <trkpt lat="46.12543" lon="6.71899">
        <ele>1849</ele>
        <time>2023-08-17T16:12:33Z</time>
      </trkpt>
      <trkpt lat="46.12561" lon="6.71905">
        <ele>1838.9</ele>
        <time>2023-08-17T16:12:45Z</time>
      </trkpt>
      <trkpt lat="46.12562" lon="6.71906">
        <ele>1838.1</ele>
        <time>2023-08-17T16:12:46Z</time>
      </trkpt>
      <trkpt lat="46.12566" lon="6.7191">
        <ele>1835.4</ele>
        <time>2023-08-17T16:12:51Z</time>
      </trkpt>
      <trkpt lat="46.12572" lon="6.71911">
        <ele>1831.8</ele>
        <time>2023-08-17T16:12:56Z</time>
      </trkpt>
      <trkpt lat="46.12574" lon="6.71912">
        <ele>1830.8</ele>
        <time>2023-08-17T16:12:59Z</time>
      </trkpt>
      <trkpt lat="46.12578" lon="6.71918">
        <ele>1827.9</ele>
        <time>2023-08-17T16:13:05Z</time>
      </trkpt>
      <trkpt lat="46.12585" lon="6.71918">
        <ele>1824.1</ele>
        <time>2023-08-17T16:13:13Z</time>
      </trkpt>
      <trkpt lat="46.12587" lon="6.71919">
        <ele>1823.2</ele>
        <time>2023-08-17T16:13:16Z</time>
      </trkpt>
      <trkpt lat="46.12591" lon="6.71917">
        <ele>1820.8</ele>
        <time>2023-08-17T16:13:21Z</time>
      </trkpt>
      <trkpt lat="46.12594" lon="6.71921">
        <ele>1819</ele>
        <time>2023-08-17T16:13:24Z</time>
      </trkpt>
      <trkpt lat="46.12596" lon="6.71925">
        <ele>1817.4</ele>
        <time>2023-08-17T16:13:27Z</time>
      </trkpt>
      <trkpt lat="46.12615" lon="6.71924">
        <ele>1810.2</ele>
        <time>2023-08-17T16:13:39Z</time>
      </trkpt>
      <trkpt lat="46.12632" lon="6.71932">
        <ele>1804.6</ele>
        <time>2023-08-17T16:13:47Z</time>
      </trkpt>
      <trkpt lat="46.12644" lon="6.71952">
        <ele>1801.5</ele>
        <time>2023-08-17T16:13:53Z</time>
      </trkpt>
      <trkpt lat="46.12655" lon="6.71973">
        <ele>1799.1</ele>
        <time>2023-08-17T16:14:00Z</time>
      </trkpt>
      <trkpt lat="46.12656" lon="6.71975">
        <ele>1798.9</ele>
        <time>2023-08-17T16:14:01Z</time>
      </trkpt>
      <trkpt lat="46.12659" lon="6.71974">
        <ele>1798.5</ele>
        <time>2023-08-17T16:14:17Z</time>
      </trkpt>
      <trkpt lat="46.12676" lon="6.71967">
        <ele>1795.8</ele>
        <time>2023-08-17T16:14:24Z</time>
      </trkpt>
      <trkpt lat="46.12689" lon="6.71986">
        <ele>1792.5</ele>
        <time>2023-08-17T16:14:32Z</time>
      </trkpt>
      <trkpt lat="46.12696" lon="6.71989">
        <ele>1785.8</ele>
        <time>2023-08-17T16:14:37Z</time>
      </trkpt>
      <trkpt lat="46.12705" lon="6.71967">
        <ele>1780.1</ele>
        <time>2023-08-17T16:14:44Z</time>
      </trkpt>
      <trkpt lat="46.12723" lon="6.71955">
        <ele>1775.7</ele>
        <time>2023-08-17T16:14:50Z</time>
      </trkpt>
      <trkpt lat="46.12742" lon="6.71955">
        <ele>1771.8</ele>
        <time>2023-08-17T16:14:56Z</time>
      </trkpt>
      <trkpt lat="46.12745" lon="6.71949">
        <ele>1770.7</ele>
        <time>2023-08-17T16:14:58Z</time>
      </trkpt>
      <trkpt lat="46.12753" lon="6.71926">
        <ele>1767.1</ele>
        <time>2023-08-17T16:15:04Z</time>
      </trkpt>
      <trkpt lat="46.12769" lon="6.71911">
        <ele>1764.3</ele>
        <time>2023-08-17T16:15:09Z</time>
      </trkpt>
      <trkpt lat="46.12787" lon="6.71904">
        <ele>1761.7</ele>
        <time>2023-08-17T16:15:14Z</time>
      </trkpt>
      <trkpt lat="46.12804" lon="6.71894">
        <ele>1756.9</ele>
        <time>2023-08-17T16:15:22Z</time>
      </trkpt>
      <trkpt lat="46.12818" lon="6.71875">
        <ele>1750</ele>
        <time>2023-08-17T16:15:32Z</time>
      </trkpt>
      <trkpt lat="46.1282" lon="6.71869">
        <ele>1748.3</ele>
        <time>2023-08-17T16:15:35Z</time>
      </trkpt>
      <trkpt lat="46.12834" lon="6.71851">
        <ele>1741.7</ele>
        <time>2023-08-17T16:15:45Z</time>
      </trkpt>
      <trkpt lat="46.1285" lon="6.71837">
        <ele>1736.6</ele>
        <time>2023-08-17T16:15:55Z</time>
      </trkpt>
      <trkpt lat="46.12867" lon="6.71823">
        <ele>1732.1</ele>
        <time>2023-08-17T16:16:06Z</time>
      </trkpt>
      <trkpt lat="46.12879" lon="6.71802">
        <ele>1728.3</ele>
        <time>2023-08-17T16:16:14Z</time>
      </trkpt>
      <trkpt lat="46.12893" lon="6.71784">
        <ele>1724.1</ele>
        <time>2023-08-17T16:16:21Z</time>
      </trkpt>
      <trkpt lat="46.12905" lon="6.71764">
        <ele>1720.2</ele>
        <time>2023-08-17T16:16:27Z</time>
      </trkpt>
      <trkpt lat="46.12908" lon="6.71738">
        <ele>1716.5</ele>
        <time>2023-08-17T16:16:32Z</time>
      </trkpt>
      <trkpt lat="46.12907" lon="6.71712">
        <ele>1713.5</ele>
        <time>2023-08-17T16:16:36Z</time>
      </trkpt>
      <trkpt lat="46.12906" lon="6.71697">
        <ele>1712.1</ele>
        <time>2023-08-17T16:16:38Z</time>
      </trkpt>
      <trkpt lat="46.12908" lon="6.71668">
        <ele>1709.8</ele>
        <time>2023-08-17T16:16:42Z</time>
      </trkpt>
      <trkpt lat="46.12911" lon="6.71654">
        <ele>1709.1</ele>
        <time>2023-08-17T16:16:44Z</time>
      </trkpt>
      <trkpt lat="46.12915" lon="6.71644">
        <ele>1708.5</ele>
        <time>2023-08-17T16:16:46Z</time>
      </trkpt>
      <trkpt lat="46.12923" lon="6.71621">
        <ele>1707</ele>
        <time>2023-08-17T16:16:51Z</time>
      </trkpt>
      <trkpt lat="46.12933" lon="6.71599">
        <ele>1705.8</ele>
        <time>2023-08-17T16:16:56Z</time>
      </trkpt>
      <trkpt lat="46.12945" lon="6.7158">
        <ele>1704.3</ele>
        <time>2023-08-17T16:17:03Z</time>
      </trkpt>
      <trkpt lat="46.12955" lon="6.71556">
        <ele>1701.9</ele>
        <time>2023-08-17T16:17:12Z</time>
      </trkpt>
      <trkpt lat="46.12961" lon="6.71528">
        <ele>1699</ele>
        <time>2023-08-17T16:17:19Z</time>
      </trkpt>
      <trkpt lat="46.12966" lon="6.71501">
        <ele>1695.8</ele>
        <time>2023-08-17T16:17:28Z</time>
      </trkpt>
      <trkpt lat="46.12967" lon="6.71474">
        <ele>1693.6</ele>
        <time>2023-08-17T16:17:35Z</time>
      </trkpt>
      <trkpt lat="46.12963" lon="6.71444">
        <ele>1691.2</ele>
        <time>2023-08-17T16:17:42Z</time>
      </trkpt>
      <trkpt lat="46.12961" lon="6.71418">
        <ele>1689.9</ele>
        <time>2023-08-17T16:17:48Z</time>
      </trkpt>
      <trkpt lat="46.12953" lon="6.71394">
        <ele>1688.8</ele>
        <time>2023-08-17T16:17:57Z</time>
      </trkpt>
      <trkpt lat="46.12947" lon="6.7137">
        <ele>1683.5</ele>
        <time>2023-08-17T16:18:06Z</time>
      </trkpt>
      <trkpt lat="46.12938" lon="6.71346">
        <ele>1678.8</ele>
        <time>2023-08-17T16:18:13Z</time>
      </trkpt>
      <trkpt lat="46.1293" lon="6.71341">
        <ele>1678.4</ele>
        <time>2023-08-17T16:18:18Z</time>
      </trkpt>
      <trkpt lat="46.12888" lon="6.71329">
        <ele>1674.6</ele>
        <time>2023-08-17T16:19:13Z</time>
      </trkpt>
      <trkpt lat="46.12877" lon="6.71308">
        <ele>1672.9</ele>
        <time>2023-08-17T16:19:21Z</time>
      </trkpt>
      <trkpt lat="46.12869" lon="6.71282">
        <ele>1671.2</ele>
        <time>2023-08-17T16:19:28Z</time>
      </trkpt>
      <trkpt lat="46.12863" lon="6.71257">
        <ele>1669.7</ele>
        <time>2023-08-17T16:19:35Z</time>
      </trkpt>
      <trkpt lat="46.12856" lon="6.71233">
        <ele>1668.2</ele>
        <time>2023-08-17T16:19:43Z</time>
      </trkpt>
      <trkpt lat="46.12847" lon="6.7121">
        <ele>1666.5</ele>
        <time>2023-08-17T16:19:53Z</time>
      </trkpt>
      <trkpt lat="46.12835" lon="6.71187">
        <ele>1664.6</ele>
        <time>2023-08-17T16:20:03Z</time>
      </trkpt>
      <trkpt lat="46.1282" lon="6.7117">
        <ele>1662.6</ele>
        <time>2023-08-17T16:20:12Z</time>
      </trkpt>
      <trkpt lat="46.12804" lon="6.71158">
        <ele>1660.7</ele>
        <time>2023-08-17T16:20:20Z</time>
      </trkpt>
      <trkpt lat="46.12787" lon="6.71143">
        <ele>1658.7</ele>
        <time>2023-08-17T16:20:29Z</time>
      </trkpt>
      <trkpt lat="46.12771" lon="6.71129">
        <ele>1657</ele>
        <time>2023-08-17T16:20:36Z</time>
      </trkpt>
      <trkpt lat="46.12754" lon="6.71114">
        <ele>1655.1</ele>
        <time>2023-08-17T16:20:45Z</time>
      </trkpt>
      <trkpt lat="46.12739" lon="6.711">
        <ele>1653.4</ele>
        <time>2023-08-17T16:20:54Z</time>
      </trkpt>
    </trkseg>
  </trk>
</gpx>